FDX7 BGSF-CYMX
Flight info
| Callsign | FDX7 |
|---|---|
| Flight time | 3h 55m |
| Altitude | 28000 |
| Route | SF DCT MA DCT MOATT/N0487F380 DCT YDP/N0481F400 J583 YWK DCT OBTEK DCT PENTU Q824 URVAS DCT DAXES DCT VIBNU DCT |
| Aircraft | B77L/H-SDE1E2E3FGHIJ2J3J4J5M1RWXY/LB1D1 |
Departure
| Time | 2026-04-20 01:06 |
|---|---|
| Airport | Kangerlussuaq International Airport (BGSF) |
Arrival
| Time | 2026-04-20 05:01 |
|---|---|
| Airport | Montreal Mirabel International Airport (CYMX) |
| Time | Latitude | Longitude | Altitude | Speed | Heading |
|---|---|---|---|---|---|
| 2026-04-20 00:43 | 67.00820 | -50.71093 | 146 ft | 0 kts | 328° |
| 2026-04-20 00:59 | 67.00860 | -50.71143 | 146 ft | 10 kts | 349° |
| 2026-04-20 01:00 | 67.00901 | -50.71088 | 147 ft | 10 kts | 40° |
| 2026-04-20 01:00 | 67.00976 | -50.70912 | 149 ft | 15 kts | 46° |
| 2026-04-20 01:00 | 67.01036 | -50.70691 | 152 ft | 15 kts | 57° |
| 2026-04-20 01:00 | 67.01093 | -50.70459 | 154 ft | 15 kts | 58° |
| 2026-04-20 01:01 | 67.01167 | -50.70279 | 157 ft | 15 kts | 8° |
| 2026-04-20 01:01 | 67.01272 | -50.70327 | 158 ft | 15 kts | 346° |
| 2026-04-20 01:01 | 67.01341 | -50.70382 | 158 ft | 8 kts | 330° |
| 2026-04-20 01:01 | 67.01348 | -50.70529 | 157 ft | 14 kts | 252° |
| 2026-04-20 01:02 | 67.01270 | -50.70924 | 152 ft | 29 kts | 242° |
| 2026-04-20 01:02 | 67.01183 | -50.71339 | 147 ft | 26 kts | 242° |
| 2026-04-20 01:02 | 67.01099 | -50.71741 | 146 ft | 26 kts | 242° |
| 2026-04-20 01:02 | 67.01013 | -50.72151 | 139 ft | 27 kts | 242° |
| 2026-04-20 01:03 | 67.00921 | -50.72579 | 128 ft | 27 kts | 242° |
| 2026-04-20 01:03 | 67.00833 | -50.72994 | 126 ft | 27 kts | 241° |
| 2026-04-20 01:03 | 67.00742 | -50.73421 | 118 ft | 28 kts | 241° |
| 2026-04-20 01:03 | 67.00656 | -50.73828 | 116 ft | 22 kts | 243° |
| 2026-04-20 01:04 | 67.00603 | -50.74088 | 113 ft | 14 kts | 241° |
| 2026-04-20 01:04 | 67.00573 | -50.74216 | 112 ft | 3 kts | 220° |
| 2026-04-20 01:04 | 67.00571 | -50.74255 | 110 ft | 1 kts | 295° |
| 2026-04-20 01:04 | 67.00588 | -50.74256 | 110 ft | 1 kts | 56° |
| 2026-04-20 01:05 | 67.00602 | -50.74122 | 113 ft | 9 kts | 78° |
| 2026-04-20 01:05 | 67.00674 | -50.73751 | 115 ft | 61 kts | 62° |
| 2026-04-20 01:05 | 67.01034 | -50.72050 | 141 ft | 154 kts | 62° |
| 2026-04-20 01:05 | 67.01622 | -50.69265 | 666 ft | 191 kts | 63° |
| 2026-04-20 01:06 | 67.02203 | -50.66042 | 1510 ft | 205 kts | 72° |
| 2026-04-20 01:06 | 67.02657 | -50.62389 | 2381 ft | 219 kts | 87° |
| 2026-04-20 01:06 | 67.02776 | -50.58448 | 2834 ft | 226 kts | 112° |
| 2026-04-20 01:06 | 67.01935 | -50.55289 | 3555 ft | 216 kts | 153° |
| 2026-04-20 01:07 | 67.00501 | -50.54545 | 4367 ft | 217 kts | 191° |
| 2026-04-20 01:07 | 66.99227 | -50.56637 | 5368 ft | 228 kts | 223° |
| 2026-04-20 01:07 | 66.98119 | -50.59539 | 5958 ft | 228 kts | 203° |
| 2026-04-20 01:07 | 66.96611 | -50.60239 | 6803 ft | 221 kts | 178° |
| 2026-04-20 01:08 | 66.95055 | -50.59929 | 7567 ft | 226 kts | 175° |
| 2026-04-20 01:08 | 66.93501 | -50.59592 | 8395 ft | 228 kts | 175° |
| 2026-04-20 01:08 | 66.91907 | -50.59369 | 9200 ft | 231 kts | 184° |
| 2026-04-20 01:08 | 66.90400 | -50.61060 | 9855 ft | 249 kts | 213° |
| 2026-04-20 01:09 | 66.89148 | -50.64284 | 10438 ft | 266 kts | 221° |
| 2026-04-20 01:09 | 66.87894 | -50.68103 | 10637 ft | 296 kts | 224° |
| 2026-04-20 01:09 | 66.86545 | -50.72399 | 10859 ft | 324 kts | 226° |
| 2026-04-20 01:09 | 66.85119 | -50.77006 | 11324 ft | 343 kts | 226° |
| 2026-04-20 01:10 | 66.83605 | -50.81908 | 12038 ft | 353 kts | 227° |
| 2026-04-20 01:10 | 66.80519 | -50.91831 | 13541 ft | 367 kts | 228° |
| 2026-04-20 01:10 | 66.78916 | -50.96940 | 14283 ft | 372 kts | 228° |
| 2026-04-20 01:11 | 66.77292 | -51.02089 | 15097 ft | 375 kts | 228° |
| 2026-04-20 01:11 | 66.75652 | -51.07267 | 15891 ft | 379 kts | 228° |
| 2026-04-20 01:11 | 66.73994 | -51.12485 | 16666 ft | 382 kts | 228° |
| 2026-04-20 01:11 | 66.72311 | -51.17764 | 17427 ft | 387 kts | 229° |
| 2026-04-20 01:12 | 66.70612 | -51.23079 | 18172 ft | 391 kts | 229° |
| 2026-04-20 01:12 | 66.68900 | -51.28428 | 18908 ft | 392 kts | 229° |
| 2026-04-20 01:12 | 66.67184 | -51.33776 | 19684 ft | 392 kts | 229° |
| 2026-04-20 01:12 | 66.65465 | -51.39114 | 20430 ft | 393 kts | 229° |
| 2026-04-20 01:13 | 66.63706 | -51.44407 | 21115 ft | 394 kts | 226° |
| 2026-04-20 01:13 | 66.61725 | -51.49196 | 21733 ft | 397 kts | 220° |
| 2026-04-20 01:13 | 66.59612 | -51.53712 | 22372 ft | 400 kts | 219° |
| 2026-04-20 01:13 | 66.57489 | -51.58149 | 23038 ft | 402 kts | 220° |
| 2026-04-20 01:14 | 66.55342 | -51.62697 | 23617 ft | 405 kts | 221° |
| 2026-04-20 01:14 | 66.53203 | -51.67309 | 24201 ft | 406 kts | 221° |
| 2026-04-20 01:14 | 66.51070 | -51.71967 | 24822 ft | 406 kts | 222° |
| 2026-04-20 01:14 | 66.48946 | -51.76614 | 25464 ft | 406 kts | 223° |
| 2026-04-20 01:15 | 66.46815 | -51.81262 | 26067 ft | 406 kts | 223° |
| 2026-04-20 01:15 | 66.44514 | -51.85433 | 26605 ft | 411 kts | 211° |
| 2026-04-20 01:15 | 66.41873 | -51.88236 | 27099 ft | 413 kts | 207° |
| 2026-04-20 01:15 | 66.39209 | -51.90940 | 27672 ft | 413 kts | 208° |
| 2026-04-20 01:16 | 66.36578 | -51.93679 | 27712 ft | 419 kts | 208° |
| 2026-04-20 01:16 | 66.33838 | -51.96582 | 27749 ft | 427 kts | 208° |
| 2026-04-20 01:16 | 66.31113 | -51.99484 | 27749 ft | 434 kts | 208° |
| 2026-04-20 01:16 | 66.28312 | -52.02466 | 27753 ft | 441 kts | 208° |
| 2026-04-20 01:17 | 66.25468 | -52.05487 | 27756 ft | 444 kts | 208° |
| 2026-04-20 01:17 | 66.22624 | -52.08493 | 27746 ft | 443 kts | 208° |
| 2026-04-20 01:17 | 66.19791 | -52.11477 | 27747 ft | 442 kts | 208° |
| 2026-04-20 01:17 | 66.16960 | -52.14453 | 27750 ft | 441 kts | 208° |
| 2026-04-20 01:18 | 66.14171 | -52.17380 | 27756 ft | 441 kts | 208° |
| 2026-04-20 01:18 | 66.11343 | -52.20341 | 27760 ft | 440 kts | 208° |
| 2026-04-20 01:18 | 66.08523 | -52.23289 | 27765 ft | 440 kts | 208° |
| 2026-04-20 01:18 | 66.05693 | -52.26239 | 27763 ft | 441 kts | 208° |
| 2026-04-20 01:19 | 66.02869 | -52.29180 | 27763 ft | 441 kts | 208° |
| 2026-04-20 01:19 | 66.00040 | -52.32115 | 27755 ft | 441 kts | 208° |
| 2026-04-20 01:19 | 65.97213 | -52.35042 | 27770 ft | 442 kts | 207° |
| 2026-04-20 01:19 | 65.94378 | -52.37968 | 27760 ft | 441 kts | 207° |
| 2026-04-20 01:20 | 65.91549 | -52.40875 | 27753 ft | 440 kts | 207° |
| 2026-04-20 01:20 | 65.88763 | -52.43733 | 27765 ft | 440 kts | 207° |
| 2026-04-20 01:20 | 65.85939 | -52.46630 | 27754 ft | 440 kts | 207° |
| 2026-04-20 01:20 | 65.83087 | -52.49550 | 27776 ft | 438 kts | 207° |
| 2026-04-20 01:21 | 65.80314 | -52.52376 | 27741 ft | 438 kts | 207° |
| 2026-04-20 01:21 | 65.77508 | -52.55233 | 27786 ft | 438 kts | 207° |
| 2026-04-20 01:21 | 65.74682 | -52.58108 | 27764 ft | 440 kts | 207° |
| 2026-04-20 01:21 | 65.71851 | -52.60979 | 27758 ft | 441 kts | 207° |
| 2026-04-20 01:22 | 65.69012 | -52.63851 | 27763 ft | 441 kts | 207° |
| 2026-04-20 01:22 | 65.66173 | -52.66715 | 27758 ft | 442 kts | 207° |
| 2026-04-20 01:22 | 65.63320 | -52.69581 | 27762 ft | 443 kts | 207° |
| 2026-04-20 01:22 | 65.60505 | -52.72405 | 27766 ft | 443 kts | 207° |
| 2026-04-20 01:23 | 65.57653 | -52.75261 | 27765 ft | 444 kts | 207° |
| 2026-04-20 01:23 | 65.54799 | -52.78112 | 27766 ft | 444 kts | 207° |
| 2026-04-20 01:23 | 65.51944 | -52.80958 | 27760 ft | 444 kts | 207° |
| 2026-04-20 01:23 | 65.49087 | -52.83797 | 27770 ft | 443 kts | 207° |
| 2026-04-20 01:24 | 65.46229 | -52.86634 | 27771 ft | 443 kts | 207° |
| 2026-04-20 01:24 | 65.43375 | -52.89457 | 27771 ft | 443 kts | 207° |
| 2026-04-20 01:24 | 65.40539 | -52.92318 | 27776 ft | 442 kts | 208° |
| 2026-04-20 01:24 | 65.37796 | -52.95620 | 27775 ft | 439 kts | 212° |
| 2026-04-20 01:25 | 65.35127 | -52.98991 | 27776 ft | 440 kts | 211° |
| 2026-04-20 01:25 | 65.32409 | -53.02373 | 27774 ft | 440 kts | 211° |
| 2026-04-20 01:25 | 65.29685 | -53.05736 | 27777 ft | 441 kts | 211° |
| 2026-04-20 01:25 | 65.26956 | -53.09088 | 27773 ft | 441 kts | 211° |
| 2026-04-20 01:26 | 65.24223 | -53.12435 | 27771 ft | 442 kts | 211° |
| 2026-04-20 01:26 | 65.21490 | -53.15774 | 27773 ft | 442 kts | 211° |
| 2026-04-20 01:26 | 65.18744 | -53.19124 | 27773 ft | 442 kts | 211° |
| 2026-04-20 01:26 | 65.16003 | -53.22462 | 27770 ft | 443 kts | 211° |
| 2026-04-20 01:27 | 65.13257 | -53.25798 | 27773 ft | 443 kts | 211° |
| 2026-04-20 01:27 | 65.10513 | -53.29124 | 27771 ft | 443 kts | 211° |
| 2026-04-20 01:27 | 65.07766 | -53.32447 | 27770 ft | 443 kts | 211° |
| 2026-04-20 01:27 | 65.05017 | -53.35766 | 27768 ft | 443 kts | 211° |
| 2026-04-20 01:28 | 65.02268 | -53.39076 | 27768 ft | 444 kts | 211° |
| 2026-04-20 01:28 | 64.99511 | -53.42387 | 27769 ft | 444 kts | 211° |
| 2026-04-20 01:28 | 64.96756 | -53.45689 | 27769 ft | 444 kts | 211° |
| 2026-04-20 01:28 | 64.93998 | -53.48987 | 27765 ft | 444 kts | 211° |
| 2026-04-20 01:29 | 64.92174 | -53.51164 | 27766 ft | 444 kts | 210° |
| 2026-04-20 01:29 | 64.88517 | -53.55519 | 27765 ft | 444 kts | 210° |
| 2026-04-20 01:29 | 64.85722 | -53.58838 | 27765 ft | 444 kts | 210° |
| 2026-04-20 01:29 | 64.82996 | -53.62067 | 27767 ft | 445 kts | 210° |
| 2026-04-20 01:30 | 64.81126 | -53.64278 | 27764 ft | 445 kts | 210° |
| 2026-04-20 01:30 | 64.77468 | -53.68593 | 27763 ft | 445 kts | 210° |
| 2026-04-20 01:30 | 64.74708 | -53.71841 | 27765 ft | 444 kts | 210° |
| 2026-04-20 01:30 | 64.72835 | -53.74040 | 27766 ft | 444 kts | 210° |
| 2026-04-20 01:31 | 64.70072 | -53.77278 | 27764 ft | 444 kts | 210° |
| 2026-04-20 01:31 | 64.67303 | -53.80515 | 27763 ft | 444 kts | 210° |
| 2026-04-20 01:31 | 64.64579 | -53.83694 | 27760 ft | 444 kts | 210° |
| 2026-04-20 01:31 | 64.61808 | -53.86919 | 27762 ft | 443 kts | 210° |
| 2026-04-20 01:32 | 64.59048 | -53.90125 | 27759 ft | 443 kts | 210° |
| 2026-04-20 01:32 | 64.56288 | -53.93322 | 27761 ft | 443 kts | 210° |
| 2026-04-20 01:32 | 64.53531 | -53.96510 | 27762 ft | 442 kts | 211° |
| 2026-04-20 01:32 | 64.50775 | -53.99689 | 27761 ft | 442 kts | 210° |
| 2026-04-20 01:33 | 64.48017 | -54.02863 | 27755 ft | 442 kts | 210° |
| 2026-04-20 01:33 | 64.45256 | -54.06033 | 27763 ft | 442 kts | 210° |
| 2026-04-20 01:33 | 64.42502 | -54.09189 | 27758 ft | 441 kts | 210° |
| 2026-04-20 01:33 | 64.39752 | -54.12331 | 27758 ft | 441 kts | 210° |
| 2026-04-20 01:34 | 64.37038 | -54.15428 | 27757 ft | 441 kts | 210° |
| 2026-04-20 01:34 | 64.34287 | -54.18559 | 27759 ft | 440 kts | 210° |
| 2026-04-20 01:34 | 64.31543 | -54.21674 | 27754 ft | 440 kts | 210° |
| 2026-04-20 01:34 | 64.28792 | -54.24791 | 27755 ft | 440 kts | 210° |
| 2026-04-20 01:35 | 64.26045 | -54.27896 | 27752 ft | 439 kts | 210° |
| 2026-04-20 01:35 | 64.23302 | -54.30990 | 27755 ft | 439 kts | 210° |
| 2026-04-20 01:35 | 64.20559 | -54.34077 | 27750 ft | 439 kts | 210° |
| 2026-04-20 01:35 | 64.17812 | -54.37162 | 27753 ft | 438 kts | 210° |
| 2026-04-20 01:36 | 64.15071 | -54.40233 | 27749 ft | 438 kts | 210° |
| 2026-04-20 01:36 | 64.12328 | -54.43299 | 27747 ft | 438 kts | 210° |
| 2026-04-20 01:36 | 64.09589 | -54.46355 | 27745 ft | 437 kts | 210° |
| 2026-04-20 01:36 | 64.06856 | -54.49397 | 27746 ft | 437 kts | 210° |
| 2026-04-20 01:37 | 64.04118 | -54.52438 | 27744 ft | 437 kts | 210° |
| 2026-04-20 01:37 | 64.01417 | -54.55432 | 27735 ft | 436 kts | 210° |
| 2026-04-20 01:37 | 63.98680 | -54.58459 | 27743 ft | 436 kts | 210° |
| 2026-04-20 01:37 | 63.95948 | -54.61474 | 27741 ft | 436 kts | 210° |
| 2026-04-20 01:38 | 63.93217 | -54.64480 | 27741 ft | 435 kts | 210° |
| 2026-04-20 01:38 | 63.90505 | -54.67460 | 27741 ft | 435 kts | 210° |
| 2026-04-20 01:38 | 63.87739 | -54.70493 | 27742 ft | 435 kts | 210° |
| 2026-04-20 01:38 | 63.85031 | -54.73455 | 27739 ft | 434 kts | 210° |
| 2026-04-20 01:39 | 63.82335 | -54.76397 | 27736 ft | 434 kts | 210° |
| 2026-04-20 01:39 | 63.79611 | -54.79364 | 27735 ft | 433 kts | 210° |
| 2026-04-20 01:39 | 63.76908 | -54.82302 | 27734 ft | 433 kts | 210° |
| 2026-04-20 01:39 | 63.74157 | -54.85285 | 27729 ft | 433 kts | 210° |
| 2026-04-20 01:40 | 63.71449 | -54.88216 | 27728 ft | 432 kts | 210° |
| 2026-04-20 01:40 | 63.68743 | -54.91138 | 27728 ft | 432 kts | 210° |
| 2026-04-20 01:40 | 63.66020 | -54.94072 | 27725 ft | 431 kts | 210° |
| 2026-04-20 01:40 | 63.63353 | -54.96940 | 27724 ft | 431 kts | 210° |
| 2026-04-20 01:41 | 63.60623 | -54.99868 | 27723 ft | 430 kts | 210° |
| 2026-04-20 01:41 | 63.57913 | -55.02768 | 27720 ft | 430 kts | 210° |
| 2026-04-20 01:41 | 63.55218 | -55.05646 | 27719 ft | 429 kts | 210° |
| 2026-04-20 01:41 | 63.52533 | -55.08510 | 27716 ft | 429 kts | 210° |
| 2026-04-20 01:42 | 63.49837 | -55.11378 | 27716 ft | 428 kts | 210° |
| 2026-04-20 01:42 | 63.47150 | -55.14230 | 27715 ft | 428 kts | 210° |
| 2026-04-20 01:42 | 63.44465 | -55.17076 | 27712 ft | 428 kts | 210° |
| 2026-04-20 01:42 | 63.41774 | -55.19920 | 27708 ft | 427 kts | 210° |
| 2026-04-20 01:43 | 63.39073 | -55.22770 | 27707 ft | 427 kts | 210° |
| 2026-04-20 01:43 | 63.36407 | -55.25577 | 27704 ft | 427 kts | 210° |
| 2026-04-20 01:43 | 63.33721 | -55.28400 | 27706 ft | 427 kts | 210° |
| 2026-04-20 01:43 | 63.31036 | -55.31216 | 27701 ft | 427 kts | 210° |
| 2026-04-20 01:44 | 63.28358 | -55.34017 | 27701 ft | 427 kts | 210° |
| 2026-04-20 01:44 | 63.25639 | -55.36856 | 27697 ft | 427 kts | 210° |
| 2026-04-20 01:44 | 63.22987 | -55.39620 | 27697 ft | 427 kts | 210° |
| 2026-04-20 01:44 | 63.20277 | -55.42438 | 27693 ft | 427 kts | 210° |
| 2026-04-20 01:45 | 63.17609 | -55.45207 | 27693 ft | 426 kts | 210° |
| 2026-04-20 01:45 | 63.14916 | -55.47995 | 27690 ft | 426 kts | 210° |
| 2026-04-20 01:45 | 63.12215 | -55.50787 | 27690 ft | 426 kts | 210° |
| 2026-04-20 01:45 | 63.09555 | -55.53530 | 27686 ft | 426 kts | 210° |
| 2026-04-20 01:46 | 63.06844 | -55.56320 | 27686 ft | 426 kts | 209° |
| 2026-04-20 01:46 | 63.04181 | -55.59055 | 27683 ft | 426 kts | 209° |
| 2026-04-20 01:46 | 63.01472 | -55.61832 | 27683 ft | 426 kts | 209° |
| 2026-04-20 01:46 | 62.98816 | -55.64549 | 27679 ft | 425 kts | 209° |
| 2026-04-20 01:47 | 62.96131 | -55.67290 | 27679 ft | 425 kts | 209° |
| 2026-04-20 01:47 | 62.93441 | -55.70030 | 27674 ft | 425 kts | 209° |
| 2026-04-20 01:47 | 62.90744 | -55.72772 | 27678 ft | 425 kts | 209° |
| 2026-04-20 01:47 | 62.88061 | -55.75495 | 27673 ft | 425 kts | 209° |
| 2026-04-20 01:48 | 62.85396 | -55.78193 | 27668 ft | 424 kts | 209° |
| 2026-04-20 01:48 | 62.82727 | -55.80890 | 27667 ft | 424 kts | 209° |
| 2026-04-20 01:48 | 62.80049 | -55.83591 | 27659 ft | 424 kts | 209° |
| 2026-04-20 01:48 | 62.77367 | -55.86290 | 27661 ft | 424 kts | 209° |
| 2026-04-20 01:49 | 62.74703 | -55.88966 | 27667 ft | 424 kts | 209° |
| 2026-04-20 01:49 | 62.72008 | -55.91668 | 27652 ft | 423 kts | 209° |
| 2026-04-20 01:49 | 62.69335 | -55.94343 | 27670 ft | 423 kts | 209° |
| 2026-04-20 01:49 | 62.66670 | -55.97003 | 27651 ft | 423 kts | 209° |
| 2026-04-20 01:50 | 62.63993 | -55.99671 | 27667 ft | 423 kts | 209° |
| 2026-04-20 01:50 | 62.61293 | -56.02357 | 27643 ft | 423 kts | 209° |
| 2026-04-20 01:50 | 62.58642 | -56.04988 | 27655 ft | 423 kts | 209° |
| 2026-04-20 01:50 | 62.55953 | -56.07652 | 27651 ft | 423 kts | 209° |
| 2026-04-20 01:51 | 62.53275 | -56.10299 | 27647 ft | 423 kts | 209° |
| 2026-04-20 01:51 | 62.50586 | -56.12952 | 27653 ft | 423 kts | 209° |
| 2026-04-20 01:51 | 62.47924 | -56.15573 | 27636 ft | 422 kts | 209° |
| 2026-04-20 01:51 | 62.45258 | -56.18192 | 27648 ft | 422 kts | 209° |
| 2026-04-20 01:52 | 62.42591 | -56.20809 | 27639 ft | 422 kts | 209° |
| 2026-04-20 01:52 | 62.39899 | -56.23443 | 27642 ft | 422 kts | 209° |
| 2026-04-20 01:52 | 62.37212 | -56.26068 | 27641 ft | 422 kts | 209° |
| 2026-04-20 01:52 | 62.34565 | -56.28649 | 27635 ft | 422 kts | 209° |
| 2026-04-20 01:53 | 62.31895 | -56.31248 | 27632 ft | 421 kts | 209° |
| 2026-04-20 01:53 | 62.29219 | -56.33846 | 27635 ft | 421 kts | 209° |
| 2026-04-20 01:53 | 62.26543 | -56.36440 | 27633 ft | 421 kts | 209° |
| 2026-04-20 01:53 | 62.23874 | -56.39022 | 27628 ft | 421 kts | 209° |
| 2026-04-20 01:54 | 62.21200 | -56.41604 | 27625 ft | 421 kts | 209° |
| 2026-04-20 01:54 | 62.18531 | -56.44177 | 27629 ft | 421 kts | 209° |
| 2026-04-20 01:54 | 62.15858 | -56.46748 | 27627 ft | 421 kts | 209° |
| 2026-04-20 01:54 | 62.13224 | -56.49276 | 27622 ft | 420 kts | 209° |
| 2026-04-20 01:55 | 62.10559 | -56.51829 | 27623 ft | 420 kts | 209° |
| 2026-04-20 01:55 | 62.07888 | -56.54383 | 27624 ft | 420 kts | 209° |
| 2026-04-20 01:55 | 62.05218 | -56.56932 | 27621 ft | 420 kts | 209° |
| 2026-04-20 01:55 | 62.02546 | -56.59477 | 27621 ft | 420 kts | 208° |
| 2026-04-20 01:56 | 61.99873 | -56.62019 | 27617 ft | 420 kts | 208° |
| 2026-04-20 01:56 | 61.97207 | -56.64549 | 27618 ft | 420 kts | 208° |
| 2026-04-20 01:56 | 61.94536 | -56.67078 | 27618 ft | 420 kts | 208° |
| 2026-04-20 01:56 | 61.91861 | -56.69606 | 27616 ft | 420 kts | 208° |
| 2026-04-20 01:57 | 61.89191 | -56.72126 | 27612 ft | 420 kts | 208° |
| 2026-04-20 01:57 | 61.86519 | -56.74641 | 27611 ft | 420 kts | 208° |
| 2026-04-20 01:57 | 61.83844 | -56.77155 | 27611 ft | 420 kts | 208° |
| 2026-04-20 01:57 | 61.81177 | -56.79657 | 27615 ft | 420 kts | 208° |
| 2026-04-20 01:58 | 61.78505 | -56.82158 | 27609 ft | 420 kts | 208° |
| 2026-04-20 01:58 | 61.75833 | -56.84655 | 27608 ft | 420 kts | 208° |
| 2026-04-20 01:58 | 61.73157 | -56.87151 | 27611 ft | 419 kts | 208° |
| 2026-04-20 01:58 | 61.70484 | -56.89639 | 27606 ft | 419 kts | 208° |
| 2026-04-20 01:59 | 61.67808 | -56.92125 | 27607 ft | 419 kts | 208° |
| 2026-04-20 01:59 | 61.65143 | -56.94596 | 27606 ft | 419 kts | 208° |
| 2026-04-20 01:59 | 61.62475 | -56.97066 | 27603 ft | 419 kts | 208° |
| 2026-04-20 01:59 | 61.59809 | -56.99529 | 27602 ft | 418 kts | 208° |
| 2026-04-20 02:00 | 61.57164 | -57.01968 | 27601 ft | 418 kts | 208° |
| 2026-04-20 02:00 | 61.54496 | -57.04423 | 27600 ft | 418 kts | 208° |
| 2026-04-20 02:00 | 61.51832 | -57.06871 | 27600 ft | 418 kts | 208° |
| 2026-04-20 02:00 | 61.49165 | -57.09316 | 27601 ft | 418 kts | 208° |
| 2026-04-20 02:01 | 61.46501 | -57.11754 | 27603 ft | 418 kts | 208° |
| 2026-04-20 02:01 | 61.43833 | -57.14192 | 27597 ft | 418 kts | 208° |
| 2026-04-20 02:01 | 61.41170 | -57.16620 | 27593 ft | 418 kts | 208° |
| 2026-04-20 02:01 | 61.38505 | -57.19045 | 27590 ft | 417 kts | 208° |
| 2026-04-20 02:02 | 61.35841 | -57.21466 | 27592 ft | 417 kts | 208° |
| 2026-04-20 02:02 | 61.33180 | -57.23878 | 27598 ft | 417 kts | 208° |
| 2026-04-20 02:02 | 61.30523 | -57.26282 | 27595 ft | 417 kts | 208° |
| 2026-04-20 02:02 | 61.27858 | -57.28690 | 27600 ft | 417 kts | 208° |
| 2026-04-20 02:03 | 61.25199 | -57.31088 | 27592 ft | 417 kts | 208° |
| 2026-04-20 02:03 | 61.22569 | -57.33454 | 27594 ft | 417 kts | 208° |
| 2026-04-20 02:03 | 61.19905 | -57.35848 | 27594 ft | 417 kts | 208° |
| 2026-04-20 02:03 | 61.17246 | -57.38233 | 27592 ft | 417 kts | 208° |
| 2026-04-20 02:04 | 61.14574 | -57.40624 | 27593 ft | 417 kts | 208° |
| 2026-04-20 02:04 | 61.11902 | -57.43012 | 27592 ft | 417 kts | 208° |
| 2026-04-20 02:04 | 61.09242 | -57.45383 | 27594 ft | 417 kts | 208° |
| 2026-04-20 02:04 | 61.06575 | -57.47758 | 27590 ft | 417 kts | 208° |
| 2026-04-20 02:05 | 61.03906 | -57.50129 | 27593 ft | 417 kts | 208° |
| 2026-04-20 02:05 | 61.01237 | -57.52496 | 27595 ft | 417 kts | 208° |
| 2026-04-20 02:05 | 60.98569 | -57.54858 | 27592 ft | 417 kts | 208° |
| 2026-04-20 02:05 | 60.95925 | -57.57194 | 27593 ft | 418 kts | 208° |
| 2026-04-20 02:06 | 60.93255 | -57.59549 | 27592 ft | 418 kts | 208° |
| 2026-04-20 02:06 | 60.90584 | -57.61900 | 27590 ft | 418 kts | 208° |
| 2026-04-20 02:06 | 60.87912 | -57.64248 | 27591 ft | 418 kts | 208° |
| 2026-04-20 02:06 | 60.85234 | -57.66597 | 27594 ft | 418 kts | 208° |
| 2026-04-20 02:07 | 60.82559 | -57.68939 | 27594 ft | 418 kts | 208° |
| 2026-04-20 02:07 | 60.79888 | -57.71273 | 27591 ft | 417 kts | 208° |
| 2026-04-20 02:07 | 60.77208 | -57.73610 | 27592 ft | 417 kts | 208° |
| 2026-04-20 02:07 | 60.74533 | -57.75940 | 27591 ft | 417 kts | 208° |
| 2026-04-20 02:08 | 60.71895 | -57.78233 | 27592 ft | 417 kts | 207° |
| 2026-04-20 02:08 | 60.69220 | -57.80553 | 27592 ft | 417 kts | 207° |
| 2026-04-20 02:08 | 60.66549 | -57.82867 | 27592 ft | 417 kts | 207° |
| 2026-04-20 02:08 | 60.63879 | -57.85176 | 27591 ft | 417 kts | 207° |
| 2026-04-20 02:09 | 60.61202 | -57.87486 | 27593 ft | 417 kts | 207° |
| 2026-04-20 02:09 | 60.58529 | -57.89788 | 27593 ft | 417 kts | 207° |
| 2026-04-20 02:09 | 60.55858 | -57.92084 | 27591 ft | 417 kts | 207° |
| 2026-04-20 02:09 | 60.53182 | -57.94381 | 27591 ft | 417 kts | 207° |
| 2026-04-20 02:10 | 60.50505 | -57.96675 | 27589 ft | 417 kts | 207° |
| 2026-04-20 02:10 | 60.47829 | -57.98963 | 27594 ft | 417 kts | 207° |
| 2026-04-20 02:10 | 60.45151 | -58.01249 | 27593 ft | 417 kts | 207° |
| 2026-04-20 02:10 | 60.42462 | -58.03540 | 27592 ft | 417 kts | 207° |
| 2026-04-20 02:11 | 60.39789 | -58.05815 | 27598 ft | 418 kts | 207° |
| 2026-04-20 02:11 | 60.37109 | -58.08090 | 27595 ft | 418 kts | 207° |
| 2026-04-20 02:11 | 60.34429 | -58.10361 | 27599 ft | 418 kts | 207° |
| 2026-04-20 02:11 | 60.31781 | -58.12602 | 27596 ft | 418 kts | 207° |
| 2026-04-20 02:12 | 60.29102 | -58.14865 | 27591 ft | 418 kts | 207° |
| 2026-04-20 02:12 | 60.26422 | -58.17124 | 27594 ft | 418 kts | 207° |
| 2026-04-20 02:12 | 60.23734 | -58.19385 | 27593 ft | 418 kts | 207° |
| 2026-04-20 02:12 | 60.21051 | -58.21640 | 27596 ft | 418 kts | 207° |
| 2026-04-20 02:13 | 60.18369 | -58.23888 | 27595 ft | 418 kts | 207° |
| 2026-04-20 02:13 | 60.15692 | -58.26130 | 27596 ft | 418 kts | 207° |
| 2026-04-20 02:13 | 60.13007 | -58.28373 | 27600 ft | 418 kts | 207° |
| 2026-04-20 02:13 | 60.10320 | -58.30614 | 27603 ft | 418 kts | 207° |
| 2026-04-20 02:14 | 60.07641 | -58.32845 | 27598 ft | 418 kts | 207° |
| 2026-04-20 02:14 | 60.04938 | -58.35092 | 27598 ft | 418 kts | 207° |
| 2026-04-20 02:14 | 60.02250 | -58.37321 | 27599 ft | 418 kts | 207° |
| 2026-04-20 02:14 | 59.99554 | -58.39554 | 27599 ft | 418 kts | 207° |
| 2026-04-20 02:15 | 59.97764 | -58.41034 | 27599 ft | 418 kts | 207° |
| 2026-04-20 02:15 | 59.94212 | -58.43967 | 27601 ft | 418 kts | 207° |
| 2026-04-20 02:15 | 59.91512 | -58.46192 | 27605 ft | 418 kts | 206° |
| 2026-04-20 02:15 | 59.89726 | -58.47661 | 27602 ft | 418 kts | 206° |
| 2026-04-20 02:16 | 59.87046 | -58.49863 | 27600 ft | 418 kts | 206° |
| 2026-04-20 02:16 | 59.84333 | -58.52087 | 27604 ft | 418 kts | 206° |
| 2026-04-20 02:16 | 59.81660 | -58.54275 | 27609 ft | 417 kts | 206° |
| 2026-04-20 02:16 | 59.78955 | -58.56485 | 27608 ft | 417 kts | 206° |
| 2026-04-20 02:17 | 59.76291 | -58.58658 | 27612 ft | 417 kts | 206° |
| 2026-04-20 02:17 | 59.73615 | -58.60837 | 27610 ft | 417 kts | 206° |
| 2026-04-20 02:17 | 59.70904 | -58.63041 | 27605 ft | 417 kts | 206° |
| 2026-04-20 02:17 | 59.68241 | -58.65202 | 27608 ft | 417 kts | 206° |
| 2026-04-20 02:18 | 59.65534 | -58.67395 | 27608 ft | 417 kts | 206° |
| 2026-04-20 02:18 | 59.62865 | -58.69553 | 27611 ft | 417 kts | 206° |
| 2026-04-20 02:18 | 59.60163 | -58.71735 | 27609 ft | 417 kts | 206° |
| 2026-04-20 02:18 | 59.57493 | -58.73886 | 27614 ft | 417 kts | 206° |
| 2026-04-20 02:19 | 59.54829 | -58.76029 | 27612 ft | 417 kts | 206° |
| 2026-04-20 02:19 | 59.52151 | -58.78180 | 27613 ft | 417 kts | 206° |
| 2026-04-20 02:19 | 59.49471 | -58.80329 | 27612 ft | 417 kts | 206° |
| 2026-04-20 02:19 | 59.46752 | -58.82505 | 27612 ft | 417 kts | 206° |
| 2026-04-20 02:20 | 59.44069 | -58.84649 | 27613 ft | 417 kts | 206° |
| 2026-04-20 02:20 | 59.41412 | -58.86768 | 27617 ft | 417 kts | 206° |
| 2026-04-20 02:20 | 59.38707 | -58.88922 | 27611 ft | 417 kts | 206° |
| 2026-04-20 02:20 | 59.36040 | -58.91042 | 27617 ft | 416 kts | 205° |
| 2026-04-20 02:21 | 59.30650 | -58.95315 | 27614 ft | 417 kts | 205° |
| 2026-04-20 02:21 | 59.27993 | -58.97416 | 27618 ft | 417 kts | 205° |
| 2026-04-20 02:21 | 59.25272 | -58.99564 | 27620 ft | 417 kts | 205° |
| 2026-04-20 02:22 | 59.22590 | -59.01678 | 27620 ft | 416 kts | 205° |
| 2026-04-20 02:22 | 59.19897 | -59.03797 | 27619 ft | 416 kts | 205° |
| 2026-04-20 02:22 | 59.17227 | -59.05894 | 27616 ft | 417 kts | 205° |
| 2026-04-20 02:22 | 59.14519 | -59.08017 | 27617 ft | 416 kts | 205° |
| 2026-04-20 02:23 | 59.11874 | -59.10087 | 27615 ft | 416 kts | 205° |
| 2026-04-20 02:23 | 59.09160 | -59.12208 | 27618 ft | 416 kts | 205° |
| 2026-04-20 02:23 | 59.06485 | -59.14295 | 27614 ft | 417 kts | 205° |
| 2026-04-20 02:23 | 59.03805 | -59.16382 | 27614 ft | 417 kts | 205° |
| 2026-04-20 02:24 | 59.01115 | -59.18473 | 27616 ft | 417 kts | 205° |
| 2026-04-20 02:24 | 58.98398 | -59.20582 | 27620 ft | 417 kts | 205° |
| 2026-04-20 02:24 | 58.95733 | -59.22648 | 27611 ft | 417 kts | 205° |
| 2026-04-20 02:24 | 58.93027 | -59.24741 | 27629 ft | 417 kts | 205° |
| 2026-04-20 02:25 | 58.90345 | -59.26812 | 27627 ft | 417 kts | 205° |
| 2026-04-20 02:25 | 58.87635 | -59.28901 | 27617 ft | 417 kts | 204° |
| 2026-04-20 02:25 | 58.84926 | -59.30987 | 27629 ft | 417 kts | 204° |
| 2026-04-20 02:25 | 58.82240 | -59.33050 | 27607 ft | 417 kts | 204° |
| 2026-04-20 02:26 | 58.79551 | -59.35113 | 27620 ft | 417 kts | 204° |
| 2026-04-20 02:26 | 58.76889 | -59.37152 | 27606 ft | 416 kts | 204° |
| 2026-04-20 02:26 | 58.74196 | -59.39210 | 27618 ft | 416 kts | 204° |
| 2026-04-20 02:26 | 58.71502 | -59.41267 | 27620 ft | 416 kts | 204° |
| 2026-04-20 02:27 | 58.68776 | -59.43343 | 27617 ft | 416 kts | 204° |
| 2026-04-20 02:27 | 58.66083 | -59.45393 | 27617 ft | 416 kts | 204° |
| 2026-04-20 02:27 | 58.63413 | -59.47420 | 27619 ft | 416 kts | 204° |
| 2026-04-20 02:27 | 58.60709 | -59.49471 | 27619 ft | 416 kts | 204° |
| 2026-04-20 02:28 | 58.58034 | -59.51495 | 27618 ft | 416 kts | 204° |
| 2026-04-20 02:28 | 58.55318 | -59.53547 | 27620 ft | 416 kts | 204° |
| 2026-04-20 02:28 | 58.52633 | -59.55573 | 27619 ft | 416 kts | 204° |
| 2026-04-20 02:28 | 58.49941 | -59.57601 | 27616 ft | 416 kts | 204° |
| 2026-04-20 02:29 | 58.47267 | -59.59612 | 27620 ft | 416 kts | 204° |
| 2026-04-20 02:29 | 58.44569 | -59.61637 | 27615 ft | 416 kts | 204° |
| 2026-04-20 02:29 | 58.41876 | -59.63656 | 27615 ft | 416 kts | 204° |
| 2026-04-20 02:29 | 58.39175 | -59.65676 | 27613 ft | 416 kts | 203° |
| 2026-04-20 02:30 | 58.36506 | -59.67670 | 27619 ft | 416 kts | 203° |
| 2026-04-20 02:30 | 58.33797 | -59.69691 | 27619 ft | 416 kts | 203° |
| 2026-04-20 02:30 | 58.31103 | -59.71697 | 27619 ft | 416 kts | 203° |
| 2026-04-20 02:30 | 58.28396 | -59.73710 | 27622 ft | 416 kts | 203° |
| 2026-04-20 02:31 | 58.25730 | -59.75688 | 27617 ft | 416 kts | 203° |
| 2026-04-20 02:31 | 58.23031 | -59.77688 | 27619 ft | 416 kts | 203° |
| 2026-04-20 02:31 | 58.20312 | -59.79700 | 27620 ft | 416 kts | 203° |
| 2026-04-20 02:31 | 58.17637 | -59.81676 | 27617 ft | 416 kts | 203° |
| 2026-04-20 02:32 | 58.14935 | -59.83669 | 27622 ft | 415 kts | 203° |
| 2026-04-20 02:32 | 58.12239 | -59.85654 | 27619 ft | 415 kts | 203° |
| 2026-04-20 02:32 | 58.09543 | -59.87638 | 27622 ft | 415 kts | 203° |
| 2026-04-20 02:32 | 58.06866 | -59.89602 | 27617 ft | 415 kts | 203° |
| 2026-04-20 02:33 | 58.04216 | -59.91662 | 27622 ft | 415 kts | 206° |
| 2026-04-20 02:33 | 58.01602 | -59.94142 | 27621 ft | 414 kts | 209° |
| 2026-04-20 02:33 | 57.99143 | -59.96883 | 27623 ft | 414 kts | 213° |
| 2026-04-20 02:33 | 57.96759 | -59.99880 | 27629 ft | 414 kts | 213° |
| 2026-04-20 02:34 | 57.94329 | -60.02906 | 27625 ft | 414 kts | 213° |
| 2026-04-20 02:34 | 57.91940 | -60.05862 | 27622 ft | 414 kts | 213° |
| 2026-04-20 02:34 | 57.89510 | -60.08856 | 27623 ft | 414 kts | 212° |
| 2026-04-20 02:34 | 57.87114 | -60.11803 | 27622 ft | 414 kts | 212° |
| 2026-04-20 02:35 | 57.84710 | -60.14755 | 27623 ft | 414 kts | 212° |
| 2026-04-20 02:35 | 57.82290 | -60.17722 | 27622 ft | 414 kts | 212° |
| 2026-04-20 02:35 | 57.79889 | -60.20662 | 27623 ft | 414 kts | 212° |
| 2026-04-20 02:35 | 57.77453 | -60.23640 | 27620 ft | 414 kts | 212° |
| 2026-04-20 02:36 | 57.75035 | -60.26592 | 27622 ft | 414 kts | 212° |
| 2026-04-20 02:36 | 57.72621 | -60.29534 | 27619 ft | 414 kts | 212° |
| 2026-04-20 02:36 | 57.70231 | -60.32443 | 27623 ft | 414 kts | 212° |
| 2026-04-20 02:36 | 57.67829 | -60.35361 | 27617 ft | 413 kts | 212° |
| 2026-04-20 02:37 | 57.65412 | -60.38292 | 27623 ft | 413 kts | 212° |
| 2026-04-20 02:37 | 57.63015 | -60.41195 | 27623 ft | 413 kts | 212° |
| 2026-04-20 02:37 | 57.60568 | -60.44153 | 27619 ft | 413 kts | 212° |
| 2026-04-20 02:37 | 57.58183 | -60.47033 | 27603 ft | 413 kts | 212° |
| 2026-04-20 02:38 | 57.55760 | -60.49952 | 27624 ft | 413 kts | 212° |
| 2026-04-20 02:38 | 57.53325 | -60.52882 | 27622 ft | 413 kts | 212° |
| 2026-04-20 02:38 | 57.50932 | -60.55757 | 27625 ft | 413 kts | 212° |
| 2026-04-20 02:38 | 57.48526 | -60.58643 | 27623 ft | 413 kts | 212° |
| 2026-04-20 02:39 | 57.46095 | -60.61553 | 27607 ft | 414 kts | 212° |
| 2026-04-20 02:39 | 57.43668 | -60.64455 | 27625 ft | 414 kts | 212° |
| 2026-04-20 02:39 | 57.41255 | -60.67335 | 27609 ft | 414 kts | 211° |
| 2026-04-20 02:39 | 57.38827 | -60.70229 | 27624 ft | 414 kts | 211° |
| 2026-04-20 02:40 | 57.36435 | -60.73075 | 27609 ft | 414 kts | 211° |
| 2026-04-20 02:40 | 57.34003 | -60.75964 | 27624 ft | 414 kts | 211° |
| 2026-04-20 02:40 | 57.31577 | -60.78842 | 27605 ft | 414 kts | 211° |
| 2026-04-20 02:40 | 57.29126 | -60.81744 | 27622 ft | 414 kts | 211° |
| 2026-04-20 02:41 | 57.26714 | -60.84595 | 27623 ft | 414 kts | 211° |
| 2026-04-20 02:41 | 57.24295 | -60.87451 | 27627 ft | 414 kts | 211° |
| 2026-04-20 02:41 | 57.21865 | -60.90314 | 27623 ft | 414 kts | 211° |
| 2026-04-20 02:41 | 57.19410 | -60.93204 | 27619 ft | 414 kts | 211° |
| 2026-04-20 02:42 | 57.17013 | -60.96020 | 27623 ft | 414 kts | 211° |
| 2026-04-20 02:42 | 57.14549 | -60.98910 | 27613 ft | 415 kts | 211° |
| 2026-04-20 02:42 | 57.12132 | -61.01741 | 27626 ft | 415 kts | 211° |
| 2026-04-20 02:42 | 57.09694 | -61.04591 | 27611 ft | 415 kts | 211° |
| 2026-04-20 02:43 | 57.07272 | -61.07418 | 27631 ft | 415 kts | 211° |
| 2026-04-20 02:43 | 57.04820 | -61.10277 | 27615 ft | 415 kts | 211° |
| 2026-04-20 02:43 | 57.02410 | -61.13082 | 27627 ft | 415 kts | 211° |
| 2026-04-20 02:43 | 56.99933 | -61.15960 | 27608 ft | 415 kts | 211° |
| 2026-04-20 02:44 | 56.97516 | -61.18764 | 27629 ft | 415 kts | 211° |
| 2026-04-20 02:44 | 56.95080 | -61.21585 | 27609 ft | 415 kts | 211° |
| 2026-04-20 02:44 | 56.92647 | -61.24399 | 27611 ft | 415 kts | 211° |
| 2026-04-20 02:44 | 56.90188 | -61.27239 | 27615 ft | 415 kts | 211° |
| 2026-04-20 02:45 | 56.87758 | -61.30041 | 27633 ft | 415 kts | 210° |
| 2026-04-20 02:45 | 56.85306 | -61.32863 | 27616 ft | 415 kts | 210° |
| 2026-04-20 02:45 | 56.82897 | -61.35632 | 27617 ft | 415 kts | 210° |
| 2026-04-20 02:45 | 56.80437 | -61.38454 | 27616 ft | 414 kts | 210° |
| 2026-04-20 02:46 | 56.77994 | -61.41254 | 27609 ft | 414 kts | 210° |
| 2026-04-20 02:46 | 56.75548 | -61.44052 | 27618 ft | 414 kts | 210° |
| 2026-04-20 02:46 | 56.73128 | -61.46816 | 27620 ft | 414 kts | 210° |
| 2026-04-20 02:46 | 56.70692 | -61.49595 | 27616 ft | 414 kts | 210° |
| 2026-04-20 02:47 | 56.68230 | -61.52399 | 27616 ft | 414 kts | 210° |
| 2026-04-20 02:47 | 56.65811 | -61.55149 | 27612 ft | 414 kts | 210° |
| 2026-04-20 02:47 | 56.63358 | -61.57935 | 27614 ft | 414 kts | 210° |
| 2026-04-20 02:47 | 56.60911 | -61.60711 | 27622 ft | 414 kts | 210° |
| 2026-04-20 02:48 | 56.58475 | -61.63469 | 27609 ft | 414 kts | 210° |
| 2026-04-20 02:48 | 56.56028 | -61.66233 | 27611 ft | 414 kts | 210° |
| 2026-04-20 02:48 | 56.53643 | -61.69164 | 27621 ft | 415 kts | 213° |
| 2026-04-20 02:48 | 56.51385 | -61.72391 | 27622 ft | 417 kts | 217° |
| 2026-04-20 02:49 | 56.49235 | -61.75931 | 27623 ft | 418 kts | 218° |
| 2026-04-20 02:49 | 56.47081 | -61.79464 | 27622 ft | 418 kts | 218° |
| 2026-04-20 02:49 | 56.44914 | -61.82983 | 27621 ft | 418 kts | 218° |
| 2026-04-20 02:49 | 56.42735 | -61.86507 | 27624 ft | 418 kts | 218° |
| 2026-04-20 02:50 | 56.40577 | -61.89988 | 27630 ft | 418 kts | 218° |
| 2026-04-20 02:50 | 56.38396 | -61.93501 | 27625 ft | 418 kts | 218° |
| 2026-04-20 02:50 | 56.36226 | -61.96993 | 27628 ft | 418 kts | 218° |
| 2026-04-20 02:50 | 56.34068 | -62.00461 | 27631 ft | 417 kts | 218° |
| 2026-04-20 02:51 | 56.31890 | -62.03957 | 27633 ft | 417 kts | 218° |
| 2026-04-20 02:51 | 56.29720 | -62.07436 | 27637 ft | 417 kts | 218° |
| 2026-04-20 02:51 | 56.27583 | -62.10856 | 27627 ft | 417 kts | 218° |
| 2026-04-20 02:51 | 56.25418 | -62.14316 | 27631 ft | 416 kts | 218° |
| 2026-04-20 02:52 | 56.23229 | -62.17810 | 27631 ft | 416 kts | 217° |
| 2026-04-20 02:52 | 56.21066 | -62.21257 | 27641 ft | 415 kts | 217° |
| 2026-04-20 02:52 | 56.18930 | -62.24654 | 27652 ft | 415 kts | 217° |
| 2026-04-20 02:52 | 56.16740 | -62.28130 | 27643 ft | 415 kts | 217° |
| 2026-04-20 02:53 | 56.14580 | -62.31555 | 27643 ft | 415 kts | 217° |
| 2026-04-20 02:53 | 56.12403 | -62.35000 | 27630 ft | 415 kts | 217° |
| 2026-04-20 02:53 | 56.10260 | -62.38389 | 27644 ft | 414 kts | 217° |
| 2026-04-20 02:53 | 56.08105 | -62.41789 | 27646 ft | 414 kts | 217° |
| 2026-04-20 02:54 | 56.05928 | -62.45220 | 27649 ft | 415 kts | 217° |
| 2026-04-20 02:54 | 56.03758 | -62.48632 | 27620 ft | 414 kts | 217° |
| 2026-04-20 02:54 | 56.01596 | -62.52029 | 27623 ft | 414 kts | 217° |
| 2026-04-20 02:54 | 55.99436 | -62.55419 | 27634 ft | 414 kts | 217° |
| 2026-04-20 02:55 | 55.97283 | -62.58790 | 27647 ft | 413 kts | 217° |
| 2026-04-20 02:55 | 55.95104 | -62.62195 | 27639 ft | 414 kts | 217° |
| 2026-04-20 02:55 | 55.92949 | -62.65558 | 27652 ft | 414 kts | 217° |
| 2026-04-20 02:55 | 55.90795 | -62.68914 | 27640 ft | 413 kts | 217° |
| 2026-04-20 02:56 | 55.88631 | -62.72283 | 27637 ft | 413 kts | 217° |
| 2026-04-20 02:56 | 55.86473 | -62.75637 | 27647 ft | 413 kts | 217° |
| 2026-04-20 02:56 | 55.84305 | -62.79000 | 27645 ft | 413 kts | 217° |
| 2026-04-20 02:56 | 55.82113 | -62.82395 | 27647 ft | 413 kts | 217° |
| 2026-04-20 02:57 | 55.79947 | -62.85746 | 27640 ft | 413 kts | 217° |
| 2026-04-20 02:57 | 55.77795 | -62.89069 | 27643 ft | 413 kts | 217° |
| 2026-04-20 02:57 | 55.75635 | -62.92400 | 27645 ft | 413 kts | 217° |
| 2026-04-20 02:57 | 55.73475 | -62.95726 | 27651 ft | 412 kts | 217° |
| 2026-04-20 02:58 | 55.71276 | -62.99106 | 27650 ft | 412 kts | 217° |
| 2026-04-20 02:58 | 55.69129 | -63.02400 | 27645 ft | 412 kts | 217° |
| 2026-04-20 02:58 | 55.66948 | -63.05743 | 27650 ft | 412 kts | 217° |
| 2026-04-20 02:58 | 55.64794 | -63.09040 | 27651 ft | 411 kts | 217° |
| 2026-04-20 02:59 | 55.62618 | -63.12364 | 27653 ft | 411 kts | 216° |
| 2026-04-20 02:59 | 55.60461 | -63.15656 | 27652 ft | 411 kts | 216° |
| 2026-04-20 02:59 | 55.58298 | -63.18950 | 27650 ft | 411 kts | 216° |
| 2026-04-20 02:59 | 55.56146 | -63.22223 | 27647 ft | 410 kts | 216° |
| 2026-04-20 03:00 | 55.53962 | -63.25541 | 27659 ft | 410 kts | 216° |
| 2026-04-20 03:00 | 55.51820 | -63.28789 | 27656 ft | 410 kts | 216° |
| 2026-04-20 03:00 | 55.49658 | -63.32064 | 27656 ft | 410 kts | 216° |
| 2026-04-20 03:00 | 55.47480 | -63.35355 | 27656 ft | 410 kts | 216° |
| 2026-04-20 03:01 | 55.45332 | -63.38598 | 27653 ft | 410 kts | 216° |
| 2026-04-20 03:01 | 55.43140 | -63.41902 | 27661 ft | 410 kts | 216° |
| 2026-04-20 03:01 | 55.40988 | -63.45140 | 27657 ft | 410 kts | 216° |
| 2026-04-20 03:01 | 55.39544 | -63.47311 | 27657 ft | 410 kts | 216° |
| 2026-04-20 03:02 | 55.36663 | -63.51636 | 27658 ft | 409 kts | 216° |
| 2026-04-20 03:02 | 55.34507 | -63.54866 | 27658 ft | 409 kts | 216° |
| 2026-04-20 03:02 | 55.33064 | -63.57026 | 27653 ft | 409 kts | 216° |
| 2026-04-20 03:02 | 55.30885 | -63.60282 | 27665 ft | 408 kts | 216° |
| 2026-04-20 03:03 | 55.28723 | -63.63509 | 27658 ft | 408 kts | 216° |
| 2026-04-20 03:03 | 55.25837 | -63.67808 | 27655 ft | 408 kts | 216° |
| 2026-04-20 03:03 | 55.24382 | -63.69974 | 27641 ft | 408 kts | 216° |
| 2026-04-20 03:03 | 55.22231 | -63.73170 | 27656 ft | 408 kts | 216° |
| 2026-04-20 03:04 | 55.20077 | -63.76365 | 27645 ft | 407 kts | 216° |
| 2026-04-20 03:04 | 55.17916 | -63.79567 | 27643 ft | 407 kts | 215° |
| 2026-04-20 03:04 | 55.15747 | -63.82776 | 27647 ft | 407 kts | 215° |
| 2026-04-20 03:04 | 55.13570 | -63.85991 | 27677 ft | 407 kts | 215° |
| 2026-04-20 03:05 | 55.11410 | -63.89176 | 27646 ft | 407 kts | 215° |
| 2026-04-20 03:05 | 55.09257 | -63.92348 | 27652 ft | 407 kts | 215° |
| 2026-04-20 03:05 | 55.07094 | -63.95528 | 27650 ft | 407 kts | 215° |
| 2026-04-20 03:05 | 55.04925 | -63.98714 | 27650 ft | 407 kts | 215° |
| 2026-04-20 03:06 | 55.02753 | -64.01898 | 27653 ft | 407 kts | 215° |
| 2026-04-20 03:06 | 55.00575 | -64.05086 | 27652 ft | 407 kts | 215° |
| 2026-04-20 03:06 | 54.98425 | -64.08230 | 27650 ft | 406 kts | 215° |
| 2026-04-20 03:06 | 54.96243 | -64.11416 | 27662 ft | 406 kts | 215° |
| 2026-04-20 03:07 | 54.94112 | -64.14523 | 27656 ft | 406 kts | 215° |
| 2026-04-20 03:07 | 54.91924 | -64.17707 | 27653 ft | 406 kts | 215° |
| 2026-04-20 03:07 | 54.89774 | -64.20833 | 27655 ft | 406 kts | 215° |
| 2026-04-20 03:07 | 54.87589 | -64.24004 | 27657 ft | 406 kts | 214° |
| 2026-04-20 03:08 | 54.85432 | -64.27130 | 27653 ft | 406 kts | 214° |
| 2026-04-20 03:08 | 54.83275 | -64.30252 | 27657 ft | 405 kts | 214° |
| 2026-04-20 03:08 | 54.81107 | -64.33384 | 27658 ft | 405 kts | 214° |
| 2026-04-20 03:08 | 54.78928 | -64.36529 | 27660 ft | 405 kts | 214° |
| 2026-04-20 03:09 | 54.76774 | -64.39634 | 27659 ft | 405 kts | 214° |
| 2026-04-20 03:09 | 54.74600 | -64.42761 | 27660 ft | 405 kts | 214° |
| 2026-04-20 03:09 | 54.72441 | -64.45864 | 27658 ft | 404 kts | 214° |
| 2026-04-20 03:09 | 54.70268 | -64.48982 | 27659 ft | 404 kts | 214° |
| 2026-04-20 03:10 | 54.68125 | -64.52052 | 27660 ft | 404 kts | 214° |
| 2026-04-20 03:10 | 54.65959 | -64.55151 | 27662 ft | 404 kts | 214° |
| 2026-04-20 03:10 | 54.63786 | -64.58256 | 27657 ft | 404 kts | 214° |
| 2026-04-20 03:10 | 54.61607 | -64.61363 | 27663 ft | 403 kts | 214° |
| 2026-04-20 03:11 | 54.59455 | -64.64429 | 27666 ft | 403 kts | 214° |
| 2026-04-20 03:11 | 54.57285 | -64.67515 | 27657 ft | 403 kts | 214° |
| 2026-04-20 03:11 | 54.55143 | -64.70558 | 27661 ft | 403 kts | 214° |
| 2026-04-20 03:11 | 54.52973 | -64.73638 | 27662 ft | 402 kts | 214° |
| 2026-04-20 03:12 | 54.50832 | -64.76671 | 27665 ft | 402 kts | 214° |
| 2026-04-20 03:12 | 54.48673 | -64.79725 | 27662 ft | 402 kts | 214° |
| 2026-04-20 03:12 | 54.46488 | -64.82810 | 27663 ft | 402 kts | 214° |
| 2026-04-20 03:12 | 54.44338 | -64.85843 | 27666 ft | 401 kts | 214° |
| 2026-04-20 03:13 | 54.42185 | -64.88875 | 27665 ft | 401 kts | 214° |
| 2026-04-20 03:13 | 54.40020 | -64.91919 | 27665 ft | 401 kts | 214° |
| 2026-04-20 03:13 | 54.37875 | -64.94933 | 27664 ft | 401 kts | 213° |
| 2026-04-20 03:13 | 54.35694 | -64.97992 | 27664 ft | 401 kts | 213° |
| 2026-04-20 03:14 | 54.33543 | -65.01004 | 27651 ft | 401 kts | 213° |
| 2026-04-20 03:14 | 54.31385 | -65.04024 | 27657 ft | 401 kts | 213° |
| 2026-04-20 03:14 | 54.29235 | -65.07026 | 27673 ft | 401 kts | 213° |
| 2026-04-20 03:14 | 54.27065 | -65.10052 | 27654 ft | 401 kts | 213° |
| 2026-04-20 03:15 | 54.24912 | -65.13051 | 27659 ft | 401 kts | 213° |
| 2026-04-20 03:15 | 54.22727 | -65.16089 | 27660 ft | 400 kts | 213° |
| 2026-04-20 03:15 | 54.20575 | -65.19078 | 27660 ft | 400 kts | 213° |
| 2026-04-20 03:15 | 54.18423 | -65.22063 | 27665 ft | 401 kts | 213° |
| 2026-04-20 03:16 | 54.16269 | -65.25046 | 27665 ft | 401 kts | 213° |
| 2026-04-20 03:16 | 54.14078 | -65.28077 | 27677 ft | 401 kts | 213° |
| 2026-04-20 03:16 | 54.11911 | -65.31069 | 27664 ft | 401 kts | 213° |
| 2026-04-20 03:16 | 54.09775 | -65.34017 | 27677 ft | 401 kts | 213° |
| 2026-04-20 03:17 | 54.07605 | -65.37005 | 27667 ft | 401 kts | 213° |
| 2026-04-20 03:17 | 54.05435 | -65.39991 | 27670 ft | 401 kts | 213° |
| 2026-04-20 03:17 | 54.03240 | -65.43006 | 27675 ft | 401 kts | 213° |
| 2026-04-20 03:17 | 54.01091 | -65.45954 | 27677 ft | 401 kts | 213° |
| 2026-04-20 03:18 | 53.98909 | -65.48943 | 27676 ft | 401 kts | 213° |
| 2026-04-20 03:18 | 53.96737 | -65.51914 | 27680 ft | 401 kts | 213° |
| 2026-04-20 03:18 | 53.94563 | -65.54883 | 27675 ft | 401 kts | 213° |
| 2026-04-20 03:18 | 53.92403 | -65.57830 | 27685 ft | 400 kts | 213° |
| 2026-04-20 03:19 | 53.90247 | -65.60768 | 27686 ft | 400 kts | 213° |
| 2026-04-20 03:19 | 53.88065 | -65.63736 | 27679 ft | 400 kts | 212° |
| 2026-04-20 03:19 | 53.85888 | -65.66695 | 27682 ft | 400 kts | 212° |
| 2026-04-20 03:19 | 53.83712 | -65.69646 | 27683 ft | 400 kts | 212° |
| 2026-04-20 03:20 | 53.81551 | -65.72574 | 27686 ft | 400 kts | 212° |
| 2026-04-20 03:20 | 53.79370 | -65.75524 | 27686 ft | 400 kts | 212° |
| 2026-04-20 03:20 | 53.77217 | -65.78434 | 27688 ft | 400 kts | 212° |
| 2026-04-20 03:20 | 53.75048 | -65.81361 | 27688 ft | 399 kts | 212° |
| 2026-04-20 03:21 | 53.72857 | -65.84313 | 27688 ft | 399 kts | 212° |
| 2026-04-20 03:21 | 53.70712 | -65.87200 | 27687 ft | 399 kts | 212° |
| 2026-04-20 03:21 | 53.68512 | -65.90156 | 27688 ft | 398 kts | 212° |
| 2026-04-20 03:21 | 53.66351 | -65.93057 | 27687 ft | 398 kts | 212° |
| 2026-04-20 03:22 | 53.64190 | -65.95953 | 27692 ft | 398 kts | 212° |
| 2026-04-20 03:22 | 53.62022 | -65.98855 | 27694 ft | 398 kts | 212° |
| 2026-04-20 03:22 | 53.59865 | -66.01737 | 27695 ft | 397 kts | 212° |
| 2026-04-20 03:22 | 53.57699 | -66.04628 | 27693 ft | 397 kts | 212° |
| 2026-04-20 03:23 | 53.55549 | -66.07493 | 27693 ft | 397 kts | 212° |
| 2026-04-20 03:23 | 53.53390 | -66.10368 | 27700 ft | 397 kts | 212° |
| 2026-04-20 03:23 | 53.51227 | -66.13244 | 27687 ft | 397 kts | 212° |
| 2026-04-20 03:23 | 53.49048 | -66.16136 | 27691 ft | 397 kts | 212° |
| 2026-04-20 03:24 | 53.46892 | -66.18996 | 27696 ft | 396 kts | 212° |
| 2026-04-20 03:24 | 53.44731 | -66.21856 | 27690 ft | 396 kts | 212° |
| 2026-04-20 03:24 | 53.42566 | -66.24719 | 27702 ft | 396 kts | 212° |
| 2026-04-20 03:24 | 53.40376 | -66.27612 | 27695 ft | 396 kts | 212° |
| 2026-04-20 03:25 | 53.38235 | -66.30435 | 27692 ft | 396 kts | 211° |
| 2026-04-20 03:25 | 53.36041 | -66.33325 | 27696 ft | 396 kts | 211° |
| 2026-04-20 03:25 | 53.33890 | -66.36155 | 27702 ft | 395 kts | 211° |
| 2026-04-20 03:25 | 53.31725 | -66.38999 | 27700 ft | 395 kts | 211° |
| 2026-04-20 03:26 | 53.29563 | -66.41836 | 27701 ft | 395 kts | 211° |
| 2026-04-20 03:26 | 53.27421 | -66.44641 | 27702 ft | 395 kts | 211° |
| 2026-04-20 03:26 | 53.25249 | -66.47483 | 27698 ft | 394 kts | 211° |
| 2026-04-20 03:26 | 53.23088 | -66.50308 | 27697 ft | 394 kts | 211° |
| 2026-04-20 03:27 | 53.20934 | -66.53119 | 27702 ft | 394 kts | 211° |
| 2026-04-20 03:27 | 53.18792 | -66.55910 | 27695 ft | 393 kts | 211° |
| 2026-04-20 03:27 | 53.16631 | -66.58724 | 27688 ft | 393 kts | 211° |
| 2026-04-20 03:27 | 53.14488 | -66.61510 | 27662 ft | 393 kts | 211° |
| 2026-04-20 03:28 | 53.12307 | -66.64340 | 27664 ft | 392 kts | 211° |
| 2026-04-20 03:28 | 53.10166 | -66.67116 | 27660 ft | 392 kts | 211° |
| 2026-04-20 03:28 | 53.05886 | -66.72657 | 27651 ft | 392 kts | 211° |
| 2026-04-20 03:29 | 53.03712 | -66.75466 | 27644 ft | 391 kts | 211° |
| 2026-04-20 03:29 | 53.01553 | -66.78252 | 27632 ft | 391 kts | 211° |
| 2026-04-20 03:29 | 52.99430 | -66.80985 | 27637 ft | 391 kts | 211° |
| 2026-04-20 03:29 | 52.97236 | -66.83692 | 27629 ft | 388 kts | 208° |
| 2026-04-20 03:30 | 52.94983 | -66.86074 | 27631 ft | 385 kts | 205° |
| 2026-04-20 03:30 | 52.92655 | -66.88206 | 27628 ft | 383 kts | 202° |
| 2026-04-20 03:30 | 52.90261 | -66.90175 | 27633 ft | 382 kts | 202° |
| 2026-04-20 03:30 | 52.87870 | -66.92138 | 27629 ft | 382 kts | 201° |
| 2026-04-20 03:31 | 52.85510 | -66.94076 | 27632 ft | 382 kts | 201° |
| 2026-04-20 03:31 | 52.83137 | -66.96025 | 27638 ft | 382 kts | 201° |
| 2026-04-20 03:31 | 52.80748 | -66.97986 | 27642 ft | 382 kts | 201° |
| 2026-04-20 03:31 | 52.78350 | -66.99954 | 27652 ft | 382 kts | 201° |
| 2026-04-20 03:32 | 52.75975 | -67.01902 | 27661 ft | 382 kts | 201° |
| 2026-04-20 03:32 | 52.73604 | -67.03845 | 27669 ft | 381 kts | 201° |
| 2026-04-20 03:32 | 52.71233 | -67.05788 | 27684 ft | 381 kts | 201° |
| 2026-04-20 03:32 | 52.68871 | -67.07720 | 27694 ft | 381 kts | 201° |
| 2026-04-20 03:33 | 52.66478 | -67.09676 | 27701 ft | 381 kts | 201° |
| 2026-04-20 03:33 | 52.64096 | -67.11620 | 27708 ft | 381 kts | 201° |
| 2026-04-20 03:33 | 52.61739 | -67.13542 | 27715 ft | 381 kts | 201° |
| 2026-04-20 03:33 | 52.59351 | -67.15486 | 27738 ft | 380 kts | 201° |
| 2026-04-20 03:34 | 52.57002 | -67.17396 | 27723 ft | 380 kts | 201° |
| 2026-04-20 03:34 | 52.54632 | -67.19321 | 27737 ft | 380 kts | 201° |
| 2026-04-20 03:34 | 52.52229 | -67.21271 | 27735 ft | 380 kts | 201° |
| 2026-04-20 03:34 | 52.49871 | -67.23181 | 27737 ft | 380 kts | 201° |
| 2026-04-20 03:35 | 52.47486 | -67.25113 | 27735 ft | 380 kts | 201° |
| 2026-04-20 03:35 | 52.45140 | -67.27009 | 27734 ft | 380 kts | 201° |
| 2026-04-20 03:35 | 52.42767 | -67.28924 | 27734 ft | 380 kts | 201° |
| 2026-04-20 03:35 | 52.40390 | -67.30841 | 27744 ft | 380 kts | 201° |
| 2026-04-20 03:36 | 52.38030 | -67.32741 | 27747 ft | 380 kts | 201° |
| 2026-04-20 03:36 | 52.35666 | -67.34643 | 27736 ft | 380 kts | 201° |
| 2026-04-20 03:36 | 52.33272 | -67.36566 | 27744 ft | 381 kts | 201° |
| 2026-04-20 03:36 | 52.30911 | -67.38461 | 27747 ft | 381 kts | 201° |
| 2026-04-20 03:37 | 52.28506 | -67.40389 | 27745 ft | 380 kts | 201° |
| 2026-04-20 03:37 | 52.26129 | -67.42292 | 27755 ft | 380 kts | 201° |
| 2026-04-20 03:37 | 52.23780 | -67.44170 | 27751 ft | 380 kts | 201° |
| 2026-04-20 03:37 | 52.21390 | -67.46080 | 27755 ft | 380 kts | 201° |
| 2026-04-20 03:38 | 52.19006 | -67.47982 | 27759 ft | 380 kts | 201° |
| 2026-04-20 03:38 | 52.16651 | -67.49858 | 27754 ft | 380 kts | 201° |
| 2026-04-20 03:38 | 52.14267 | -67.51755 | 27749 ft | 380 kts | 201° |
| 2026-04-20 03:38 | 52.11904 | -67.53633 | 27768 ft | 380 kts | 201° |
| 2026-04-20 03:39 | 52.09544 | -67.55507 | 27742 ft | 380 kts | 201° |
| 2026-04-20 03:39 | 52.07172 | -67.57388 | 27767 ft | 379 kts | 201° |
| 2026-04-20 03:39 | 52.04806 | -67.59262 | 27748 ft | 379 kts | 201° |
| 2026-04-20 03:39 | 52.02399 | -67.61166 | 27763 ft | 379 kts | 201° |
| 2026-04-20 03:40 | 52.00041 | -67.63030 | 27769 ft | 379 kts | 201° |
| 2026-04-20 03:40 | 51.97681 | -67.64891 | 27752 ft | 379 kts | 201° |
| 2026-04-20 03:40 | 51.95303 | -67.66766 | 27758 ft | 379 kts | 201° |
| 2026-04-20 03:40 | 51.92947 | -67.68621 | 27762 ft | 379 kts | 201° |
| 2026-04-20 03:41 | 51.90570 | -67.70490 | 27757 ft | 379 kts | 201° |
| 2026-04-20 03:41 | 51.88207 | -67.72346 | 27763 ft | 378 kts | 201° |
| 2026-04-20 03:41 | 51.85848 | -67.74197 | 27768 ft | 378 kts | 201° |
| 2026-04-20 03:41 | 51.83473 | -67.76059 | 27768 ft | 378 kts | 200° |
| 2026-04-20 03:42 | 51.81109 | -67.77909 | 27771 ft | 378 kts | 201° |
| 2026-04-20 03:42 | 51.78737 | -67.79764 | 27774 ft | 378 kts | 200° |
| 2026-04-20 03:42 | 51.76388 | -67.81599 | 27783 ft | 377 kts | 200° |
| 2026-04-20 03:42 | 51.74006 | -67.83457 | 27778 ft | 377 kts | 200° |
| 2026-04-20 03:43 | 51.71667 | -67.85280 | 27778 ft | 377 kts | 200° |
| 2026-04-20 03:43 | 51.69303 | -67.87119 | 27784 ft | 377 kts | 200° |
| 2026-04-20 03:43 | 51.66931 | -67.88962 | 27781 ft | 378 kts | 200° |
| 2026-04-20 03:43 | 51.64554 | -67.90807 | 27796 ft | 377 kts | 200° |
| 2026-04-20 03:44 | 51.62216 | -67.92620 | 27780 ft | 377 kts | 200° |
| 2026-04-20 03:44 | 51.59845 | -67.94457 | 27797 ft | 377 kts | 200° |
| 2026-04-20 03:44 | 51.57467 | -67.96296 | 27784 ft | 377 kts | 200° |
| 2026-04-20 03:44 | 51.55114 | -67.98115 | 27791 ft | 377 kts | 200° |
| 2026-04-20 03:45 | 51.52760 | -67.99932 | 27792 ft | 377 kts | 200° |
| 2026-04-20 03:45 | 51.50377 | -68.01769 | 27783 ft | 377 kts | 200° |
| 2026-04-20 03:45 | 51.48041 | -68.03568 | 27801 ft | 377 kts | 200° |
| 2026-04-20 03:45 | 51.45655 | -68.05404 | 27795 ft | 377 kts | 200° |
| 2026-04-20 03:46 | 51.43304 | -68.07210 | 27798 ft | 377 kts | 200° |
| 2026-04-20 03:46 | 51.40932 | -68.09030 | 27798 ft | 377 kts | 200° |
| 2026-04-20 03:46 | 51.38561 | -68.10847 | 27797 ft | 377 kts | 200° |
| 2026-04-20 03:46 | 51.36191 | -68.12663 | 27800 ft | 377 kts | 200° |
| 2026-04-20 03:47 | 51.33827 | -68.14470 | 27800 ft | 377 kts | 200° |
| 2026-04-20 03:47 | 51.31469 | -68.16272 | 27805 ft | 377 kts | 200° |
| 2026-04-20 03:47 | 51.29099 | -68.18081 | 27800 ft | 376 kts | 200° |
| 2026-04-20 03:47 | 51.26754 | -68.19868 | 27798 ft | 376 kts | 200° |
| 2026-04-20 03:48 | 51.24381 | -68.21675 | 27799 ft | 376 kts | 200° |
| 2026-04-20 03:48 | 51.22046 | -68.23451 | 27810 ft | 375 kts | 200° |
| 2026-04-20 03:48 | 51.19672 | -68.25253 | 27804 ft | 375 kts | 200° |
| 2026-04-20 03:48 | 51.17326 | -68.27033 | 27805 ft | 375 kts | 200° |
| 2026-04-20 03:49 | 51.14958 | -68.28826 | 27809 ft | 375 kts | 200° |
| 2026-04-20 03:49 | 51.12598 | -68.30613 | 27807 ft | 375 kts | 200° |
| 2026-04-20 03:49 | 51.10263 | -68.32379 | 27804 ft | 375 kts | 200° |
| 2026-04-20 03:49 | 51.07902 | -68.34162 | 27814 ft | 375 kts | 200° |
| 2026-04-20 03:50 | 51.05540 | -68.35944 | 27807 ft | 375 kts | 200° |
| 2026-04-20 03:50 | 51.03961 | -68.37135 | 27820 ft | 375 kts | 200° |
| 2026-04-20 03:50 | 51.00818 | -68.39500 | 27814 ft | 376 kts | 200° |
| 2026-04-20 03:50 | 50.98466 | -68.41267 | 27821 ft | 376 kts | 200° |
| 2026-04-20 03:51 | 50.96872 | -68.42465 | 27823 ft | 376 kts | 200° |
| 2026-04-20 03:51 | 50.94499 | -68.44246 | 27830 ft | 377 kts | 200° |
| 2026-04-20 03:51 | 50.91363 | -68.46595 | 27817 ft | 377 kts | 200° |
| 2026-04-20 03:51 | 50.89780 | -68.47780 | 27831 ft | 377 kts | 200° |
| 2026-04-20 03:52 | 50.87400 | -68.49560 | 27806 ft | 377 kts | 200° |
| 2026-04-20 03:52 | 50.85027 | -68.51334 | 27820 ft | 377 kts | 200° |
| 2026-04-20 03:52 | 50.82633 | -68.53121 | 27819 ft | 377 kts | 200° |
| 2026-04-20 03:52 | 50.80265 | -68.54886 | 27823 ft | 377 kts | 200° |
| 2026-04-20 03:53 | 50.77895 | -68.56650 | 27824 ft | 377 kts | 200° |
| 2026-04-20 03:53 | 50.75533 | -68.58406 | 27829 ft | 377 kts | 200° |
| 2026-04-20 03:53 | 50.73160 | -68.60168 | 27832 ft | 377 kts | 200° |
| 2026-04-20 03:53 | 50.70787 | -68.61929 | 27821 ft | 378 kts | 200° |
| 2026-04-20 03:54 | 50.68406 | -68.63693 | 27826 ft | 378 kts | 200° |
| 2026-04-20 03:54 | 50.66019 | -68.65460 | 27828 ft | 378 kts | 200° |
| 2026-04-20 03:54 | 50.63628 | -68.67229 | 27831 ft | 378 kts | 200° |
| 2026-04-20 03:54 | 50.61237 | -68.68995 | 27817 ft | 379 kts | 200° |
| 2026-04-20 03:55 | 50.58877 | -68.70737 | 27834 ft | 378 kts | 200° |
| 2026-04-20 03:55 | 50.56476 | -68.72507 | 27831 ft | 379 kts | 200° |
| 2026-04-20 03:55 | 50.54104 | -68.74253 | 27826 ft | 378 kts | 200° |
| 2026-04-20 03:55 | 50.51718 | -68.76007 | 27831 ft | 379 kts | 200° |
| 2026-04-20 03:56 | 50.49333 | -68.77759 | 27837 ft | 379 kts | 200° |
| 2026-04-20 03:56 | 50.46954 | -68.79504 | 27833 ft | 379 kts | 200° |
| 2026-04-20 03:56 | 50.44561 | -68.81257 | 27831 ft | 379 kts | 200° |
| 2026-04-20 03:56 | 50.42169 | -68.83008 | 27837 ft | 379 kts | 200° |
| 2026-04-20 03:57 | 50.39791 | -68.84747 | 27838 ft | 380 kts | 200° |
| 2026-04-20 03:57 | 50.37409 | -68.86487 | 27836 ft | 380 kts | 200° |
| 2026-04-20 03:57 | 50.34991 | -68.88252 | 27838 ft | 380 kts | 200° |
| 2026-04-20 03:57 | 50.32618 | -68.89982 | 27822 ft | 380 kts | 200° |
| 2026-04-20 03:58 | 50.30217 | -68.91729 | 27824 ft | 380 kts | 200° |
| 2026-04-20 03:58 | 50.27822 | -68.93471 | 27830 ft | 380 kts | 200° |
| 2026-04-20 03:58 | 50.25421 | -68.95215 | 27852 ft | 380 kts | 200° |
| 2026-04-20 03:58 | 50.22997 | -68.96974 | 27851 ft | 381 kts | 200° |
| 2026-04-20 03:59 | 50.20593 | -68.98715 | 27834 ft | 381 kts | 200° |
| 2026-04-20 03:59 | 50.18190 | -69.00454 | 27841 ft | 380 kts | 200° |
| 2026-04-20 03:59 | 50.15798 | -69.02185 | 27844 ft | 380 kts | 200° |
| 2026-04-20 03:59 | 50.13402 | -69.03915 | 27841 ft | 380 kts | 200° |
| 2026-04-20 04:00 | 50.11019 | -69.05635 | 27846 ft | 380 kts | 200° |
| 2026-04-20 04:00 | 50.08613 | -69.07369 | 27851 ft | 380 kts | 200° |
| 2026-04-20 04:00 | 50.06214 | -69.09096 | 27851 ft | 380 kts | 200° |
| 2026-04-20 04:00 | 50.03816 | -69.10820 | 27851 ft | 380 kts | 200° |
| 2026-04-20 04:01 | 50.01415 | -69.12545 | 27851 ft | 380 kts | 201° |
| 2026-04-20 04:01 | 49.99009 | -69.14271 | 27851 ft | 380 kts | 201° |
| 2026-04-20 04:01 | 49.96621 | -69.15983 | 27848 ft | 380 kts | 201° |
| 2026-04-20 04:01 | 49.94215 | -69.17705 | 27855 ft | 380 kts | 202° |
| 2026-04-20 04:02 | 49.91810 | -69.19425 | 27863 ft | 379 kts | 201° |
| 2026-04-20 04:02 | 49.89391 | -69.21153 | 27867 ft | 380 kts | 201° |
| 2026-04-20 04:02 | 49.87015 | -69.22848 | 27859 ft | 381 kts | 201° |
| 2026-04-20 04:02 | 49.84593 | -69.24574 | 27849 ft | 382 kts | 201° |
| 2026-04-20 04:03 | 49.82163 | -69.26305 | 27849 ft | 383 kts | 201° |
| 2026-04-20 04:03 | 49.79743 | -69.28025 | 27855 ft | 383 kts | 201° |
| 2026-04-20 04:03 | 49.77318 | -69.29748 | 27851 ft | 383 kts | 201° |
| 2026-04-20 04:03 | 49.74890 | -69.31471 | 27838 ft | 384 kts | 201° |
| 2026-04-20 04:04 | 49.72460 | -69.33194 | 27854 ft | 384 kts | 201° |
| 2026-04-20 04:04 | 49.70046 | -69.34904 | 27853 ft | 385 kts | 201° |
| 2026-04-20 04:04 | 49.67587 | -69.36643 | 27860 ft | 386 kts | 201° |
| 2026-04-20 04:04 | 49.65176 | -69.38346 | 27841 ft | 386 kts | 201° |
| 2026-04-20 04:05 | 49.62731 | -69.40071 | 27858 ft | 386 kts | 201° |
| 2026-04-20 04:05 | 49.60284 | -69.41797 | 27862 ft | 387 kts | 201° |
| 2026-04-20 04:05 | 49.57839 | -69.43518 | 27868 ft | 387 kts | 201° |
| 2026-04-20 04:05 | 49.55372 | -69.45253 | 27823 ft | 388 kts | 201° |
| 2026-04-20 04:06 | 49.52910 | -69.46983 | 27858 ft | 388 kts | 201° |
| 2026-04-20 04:06 | 49.50459 | -69.48703 | 27863 ft | 389 kts | 201° |
| 2026-04-20 04:06 | 49.48004 | -69.50425 | 27862 ft | 390 kts | 201° |
| 2026-04-20 04:06 | 49.45519 | -69.52165 | 27841 ft | 390 kts | 201° |
| 2026-04-20 04:07 | 49.43060 | -69.53885 | 27858 ft | 390 kts | 201° |
| 2026-04-20 04:07 | 49.40604 | -69.55601 | 27860 ft | 391 kts | 201° |
| 2026-04-20 04:07 | 49.38104 | -69.57345 | 27868 ft | 391 kts | 201° |
| 2026-04-20 04:07 | 49.35653 | -69.59054 | 27834 ft | 392 kts | 201° |
| 2026-04-20 04:08 | 49.33137 | -69.60807 | 27871 ft | 392 kts | 201° |
| 2026-04-20 04:08 | 49.30656 | -69.62534 | 27872 ft | 393 kts | 201° |
| 2026-04-20 04:08 | 49.28190 | -69.64247 | 27879 ft | 393 kts | 201° |
| 2026-04-20 04:08 | 49.25678 | -69.65990 | 27839 ft | 394 kts | 201° |
| 2026-04-20 04:09 | 49.23172 | -69.67727 | 27871 ft | 394 kts | 201° |
| 2026-04-20 04:09 | 49.20687 | -69.69448 | 27874 ft | 395 kts | 201° |
| 2026-04-20 04:09 | 49.18194 | -69.71173 | 27874 ft | 396 kts | 202° |
| 2026-04-20 04:09 | 49.15684 | -69.72907 | 27847 ft | 396 kts | 202° |
| 2026-04-20 04:10 | 49.13171 | -69.74642 | 27861 ft | 397 kts | 202° |
| 2026-04-20 04:10 | 49.10644 | -69.76384 | 27868 ft | 397 kts | 202° |
| 2026-04-20 04:10 | 49.08129 | -69.78116 | 27866 ft | 398 kts | 202° |
| 2026-04-20 04:10 | 49.05610 | -69.79849 | 27851 ft | 398 kts | 202° |
| 2026-04-20 04:11 | 49.03080 | -69.81587 | 27873 ft | 398 kts | 202° |
| 2026-04-20 04:11 | 49.00544 | -69.83328 | 27860 ft | 399 kts | 202° |
| 2026-04-20 04:11 | 48.98021 | -69.85058 | 27873 ft | 399 kts | 202° |
| 2026-04-20 04:11 | 48.95477 | -69.86800 | 27843 ft | 400 kts | 202° |
| 2026-04-20 04:12 | 48.92958 | -69.88524 | 27861 ft | 400 kts | 202° |
| 2026-04-20 04:12 | 48.90413 | -69.90263 | 27870 ft | 400 kts | 202° |
| 2026-04-20 04:12 | 48.87883 | -69.91989 | 27868 ft | 400 kts | 202° |
| 2026-04-20 04:12 | 48.85348 | -69.93717 | 27856 ft | 401 kts | 202° |
| 2026-04-20 04:13 | 48.82799 | -69.95452 | 27862 ft | 401 kts | 202° |
| 2026-04-20 04:13 | 48.80243 | -69.97191 | 27881 ft | 402 kts | 202° |
| 2026-04-20 04:13 | 48.77711 | -69.98913 | 27878 ft | 401 kts | 202° |
| 2026-04-20 04:13 | 48.75128 | -70.00666 | 27858 ft | 402 kts | 202° |
| 2026-04-20 04:14 | 48.72598 | -70.02382 | 27865 ft | 402 kts | 202° |
| 2026-04-20 04:14 | 48.70035 | -70.04117 | 27885 ft | 403 kts | 202° |
| 2026-04-20 04:14 | 48.67496 | -70.05834 | 27886 ft | 403 kts | 202° |
| 2026-04-20 04:14 | 48.64915 | -70.07578 | 27865 ft | 402 kts | 202° |
| 2026-04-20 04:15 | 48.62361 | -70.09301 | 27867 ft | 403 kts | 202° |
| 2026-04-20 04:15 | 48.59835 | -70.11005 | 27883 ft | 403 kts | 202° |
| 2026-04-20 04:15 | 48.57252 | -70.12745 | 27872 ft | 403 kts | 202° |
| 2026-04-20 04:15 | 48.54689 | -70.14469 | 27856 ft | 403 kts | 202° |
| 2026-04-20 04:16 | 48.52129 | -70.16191 | 27880 ft | 403 kts | 202° |
| 2026-04-20 04:16 | 48.49579 | -70.17902 | 27893 ft | 404 kts | 202° |
| 2026-04-20 04:16 | 48.46993 | -70.19635 | 27887 ft | 405 kts | 202° |
| 2026-04-20 04:16 | 48.44438 | -70.21346 | 27873 ft | 405 kts | 202° |
| 2026-04-20 04:17 | 48.41878 | -70.23059 | 27892 ft | 406 kts | 202° |
| 2026-04-20 04:17 | 48.39277 | -70.24796 | 27895 ft | 406 kts | 202° |
| 2026-04-20 04:17 | 48.36692 | -70.26522 | 27902 ft | 407 kts | 202° |
| 2026-04-20 04:17 | 48.34110 | -70.28243 | 27878 ft | 407 kts | 202° |
| 2026-04-20 04:18 | 48.31529 | -70.29963 | 27885 ft | 407 kts | 202° |
| 2026-04-20 04:18 | 48.28943 | -70.31684 | 27897 ft | 406 kts | 202° |
| 2026-04-20 04:18 | 48.26336 | -70.33417 | 27905 ft | 407 kts | 202° |
| 2026-04-20 04:18 | 48.23779 | -70.35114 | 27875 ft | 407 kts | 202° |
| 2026-04-20 04:19 | 48.21153 | -70.36853 | 27911 ft | 408 kts | 202° |
| 2026-04-20 04:19 | 48.18564 | -70.38567 | 27933 ft | 408 kts | 202° |
| 2026-04-20 04:19 | 48.15986 | -70.40272 | 27922 ft | 409 kts | 202° |
| 2026-04-20 04:19 | 48.13379 | -70.41995 | 27901 ft | 410 kts | 203° |
| 2026-04-20 04:20 | 48.10752 | -70.43729 | 27916 ft | 410 kts | 203° |
| 2026-04-20 04:20 | 48.08169 | -70.45433 | 27917 ft | 410 kts | 202° |
| 2026-04-20 04:20 | 48.05516 | -70.47181 | 27927 ft | 411 kts | 202° |
| 2026-04-20 04:20 | 48.02938 | -70.48878 | 27909 ft | 411 kts | 203° |
| 2026-04-20 04:21 | 48.00287 | -70.50620 | 27916 ft | 412 kts | 203° |
| 2026-04-20 04:21 | 47.97672 | -70.52336 | 27927 ft | 412 kts | 203° |
| 2026-04-20 04:21 | 47.95049 | -70.54056 | 27909 ft | 414 kts | 203° |
| 2026-04-20 04:21 | 47.92419 | -70.55779 | 27915 ft | 414 kts | 203° |
| 2026-04-20 04:22 | 47.89783 | -70.57503 | 27923 ft | 415 kts | 203° |
| 2026-04-20 04:22 | 47.87102 | -70.59255 | 27916 ft | 416 kts | 203° |
| 2026-04-20 04:22 | 47.84455 | -70.60983 | 27916 ft | 416 kts | 203° |
| 2026-04-20 04:22 | 47.81823 | -70.62699 | 27898 ft | 416 kts | 203° |
| 2026-04-20 04:23 | 47.79186 | -70.64417 | 27918 ft | 416 kts | 203° |
| 2026-04-20 04:23 | 47.76509 | -70.66158 | 27909 ft | 417 kts | 203° |
| 2026-04-20 04:23 | 47.73858 | -70.67881 | 27910 ft | 417 kts | 203° |
| 2026-04-20 04:23 | 47.71214 | -70.69598 | 27893 ft | 417 kts | 203° |
| 2026-04-20 04:24 | 47.68533 | -70.71336 | 27902 ft | 418 kts | 203° |
| 2026-04-20 04:24 | 47.65883 | -70.73052 | 27896 ft | 419 kts | 203° |
| 2026-04-20 04:24 | 47.63223 | -70.74773 | 27899 ft | 419 kts | 203° |
| 2026-04-20 04:24 | 47.60521 | -70.76519 | 27883 ft | 419 kts | 203° |
| 2026-04-20 04:25 | 47.57861 | -70.78237 | 27901 ft | 420 kts | 203° |
| 2026-04-20 04:25 | 47.55191 | -70.79958 | 27896 ft | 420 kts | 203° |
| 2026-04-20 04:25 | 47.52506 | -70.81687 | 27866 ft | 421 kts | 203° |
| 2026-04-20 04:25 | 47.49793 | -70.83432 | 27868 ft | 421 kts | 203° |
| 2026-04-20 04:26 | 47.47105 | -70.85159 | 27886 ft | 421 kts | 203° |
| 2026-04-20 04:26 | 47.44440 | -70.86871 | 27890 ft | 422 kts | 203° |
| 2026-04-20 04:26 | 47.41713 | -70.88620 | 27889 ft | 423 kts | 203° |
| 2026-04-20 04:26 | 47.39054 | -70.90324 | 27867 ft | 423 kts | 203° |
| 2026-04-20 04:27 | 47.36308 | -70.92080 | 27887 ft | 424 kts | 203° |
| 2026-04-20 04:27 | 47.33631 | -70.93791 | 27892 ft | 424 kts | 203° |
| 2026-04-20 04:27 | 47.30932 | -70.95514 | 27895 ft | 425 kts | 203° |
| 2026-04-20 04:27 | 47.28190 | -70.97262 | 27882 ft | 425 kts | 203° |
| 2026-04-20 04:28 | 47.25470 | -70.98994 | 27902 ft | 425 kts | 203° |
| 2026-04-20 04:28 | 47.22756 | -71.00721 | 27913 ft | 426 kts | 203° |
| 2026-04-20 04:28 | 47.20034 | -71.02450 | 27912 ft | 426 kts | 203° |
| 2026-04-20 04:28 | 47.17309 | -71.04180 | 27886 ft | 426 kts | 203° |
| 2026-04-20 04:29 | 47.14617 | -71.05887 | 27908 ft | 427 kts | 203° |
| 2026-04-20 04:29 | 47.11871 | -71.07626 | 27925 ft | 427 kts | 203° |
| 2026-04-20 04:29 | 47.09143 | -71.09353 | 27932 ft | 427 kts | 203° |
| 2026-04-20 04:29 | 47.06437 | -71.11063 | 27903 ft | 427 kts | 203° |
| 2026-04-20 04:30 | 47.03720 | -71.12778 | 27920 ft | 427 kts | 203° |
| 2026-04-20 04:30 | 47.00973 | -71.14510 | 27942 ft | 427 kts | 203° |
| 2026-04-20 04:30 | 46.98218 | -71.16246 | 27945 ft | 428 kts | 203° |
| 2026-04-20 04:30 | 46.95513 | -71.17948 | 27916 ft | 428 kts | 203° |
| 2026-04-20 04:31 | 46.92789 | -71.19661 | 27934 ft | 428 kts | 203° |
| 2026-04-20 04:31 | 46.90030 | -71.21394 | 27946 ft | 429 kts | 203° |
| 2026-04-20 04:31 | 46.87279 | -71.23119 | 27946 ft | 429 kts | 203° |
| 2026-04-20 04:31 | 46.84529 | -71.24844 | 27924 ft | 429 kts | 204° |
| 2026-04-20 04:32 | 46.81905 | -71.26903 | 27941 ft | 430 kts | 212° |
| 2026-04-20 04:32 | 46.79490 | -71.29498 | 27953 ft | 431 kts | 217° |
| 2026-04-20 04:32 | 46.77245 | -71.32322 | 27946 ft | 433 kts | 220° |
| 2026-04-20 04:32 | 46.75162 | -71.35512 | 27921 ft | 436 kts | 227° |
| 2026-04-20 04:33 | 46.73316 | -71.39055 | 27936 ft | 438 kts | 230° |
| 2026-04-20 04:33 | 46.71503 | -71.42635 | 27937 ft | 439 kts | 230° |
| 2026-04-20 04:33 | 46.69691 | -71.46209 | 27942 ft | 439 kts | 230° |
| 2026-04-20 04:33 | 46.67866 | -71.49778 | 27928 ft | 439 kts | 229° |
| 2026-04-20 04:34 | 46.66030 | -71.53340 | 27940 ft | 439 kts | 229° |
| 2026-04-20 04:34 | 46.64185 | -71.56895 | 27951 ft | 440 kts | 229° |
| 2026-04-20 04:34 | 46.62358 | -71.60404 | 27954 ft | 440 kts | 229° |
| 2026-04-20 04:34 | 46.60508 | -71.63950 | 27932 ft | 440 kts | 229° |
| 2026-04-20 04:35 | 46.58663 | -71.67486 | 27944 ft | 435 kts | 229° |
| 2026-04-20 04:35 | 46.56884 | -71.70898 | 27941 ft | 413 kts | 229° |
| 2026-04-20 04:35 | 46.55170 | -71.74150 | 27942 ft | 396 kts | 228° |
| 2026-04-20 04:35 | 46.53441 | -71.77321 | 27939 ft | 405 kts | 228° |
| 2026-04-20 04:36 | 46.49915 | -71.83739 | 27949 ft | 393 kts | 228° |
| 2026-04-20 04:36 | 46.48254 | -71.86783 | 27951 ft | 381 kts | 228° |
| 2026-04-20 04:36 | 46.46627 | -71.89758 | 27933 ft | 372 kts | 228° |
| 2026-04-20 04:37 | 46.45037 | -71.92663 | 27952 ft | 362 kts | 228° |
| 2026-04-20 04:37 | 46.43482 | -71.95497 | 27958 ft | 358 kts | 228° |
| 2026-04-20 04:37 | 46.41961 | -71.98266 | 27949 ft | 350 kts | 228° |
| 2026-04-20 04:37 | 46.40469 | -72.00984 | 27818 ft | 341 kts | 227° |
| 2026-04-20 04:38 | 46.39001 | -72.03651 | 27546 ft | 334 kts | 227° |
| 2026-04-20 04:38 | 46.37554 | -72.06278 | 27168 ft | 332 kts | 227° |
| 2026-04-20 04:38 | 46.36597 | -72.08012 | 26890 ft | 334 kts | 227° |
| 2026-04-20 04:38 | 46.34617 | -72.11592 | 26281 ft | 346 kts | 228° |
| 2026-04-20 04:39 | 46.33614 | -72.13406 | 25984 ft | 350 kts | 228° |
| 2026-04-20 04:39 | 46.32090 | -72.16161 | 25513 ft | 350 kts | 228° |
| 2026-04-20 04:39 | 46.30578 | -72.18899 | 25065 ft | 347 kts | 228° |
| 2026-04-20 04:39 | 46.29067 | -72.21632 | 24581 ft | 346 kts | 228° |
| 2026-04-20 04:40 | 46.27570 | -72.24335 | 24143 ft | 344 kts | 228° |
| 2026-04-20 04:40 | 46.26088 | -72.27009 | 23707 ft | 342 kts | 228° |
| 2026-04-20 04:40 | 46.24604 | -72.29683 | 23198 ft | 341 kts | 228° |
| 2026-04-20 04:40 | 46.23119 | -72.32356 | 22689 ft | 339 kts | 229° |
| 2026-04-20 04:41 | 46.21652 | -72.34994 | 22256 ft | 335 kts | 229° |
| 2026-04-20 04:41 | 46.20197 | -72.37609 | 21815 ft | 333 kts | 229° |
| 2026-04-20 04:41 | 46.18750 | -72.40206 | 21378 ft | 330 kts | 229° |
| 2026-04-20 04:41 | 46.17318 | -72.42773 | 20935 ft | 327 kts | 229° |
| 2026-04-20 04:42 | 46.15897 | -72.45320 | 20519 ft | 324 kts | 229° |
| 2026-04-20 04:42 | 46.14486 | -72.47845 | 20111 ft | 322 kts | 229° |
| 2026-04-20 04:42 | 46.13086 | -72.50351 | 19694 ft | 320 kts | 230° |
| 2026-04-20 04:42 | 46.11692 | -72.52843 | 19270 ft | 318 kts | 230° |
| 2026-04-20 04:43 | 46.10308 | -72.55312 | 18873 ft | 315 kts | 230° |
| 2026-04-20 04:43 | 46.08929 | -72.57771 | 18465 ft | 313 kts | 230° |
| 2026-04-20 04:43 | 46.07602 | -72.60245 | 18039 ft | 312 kts | 233° |
| 2026-04-20 04:43 | 46.06455 | -72.62884 | 17581 ft | 310 kts | 238° |
| 2026-04-20 04:44 | 46.05410 | -72.65579 | 17186 ft | 306 kts | 239° |
| 2026-04-20 04:44 | 46.04401 | -72.68213 | 16807 ft | 303 kts | 239° |
| 2026-04-20 04:44 | 46.03388 | -72.70859 | 16403 ft | 300 kts | 239° |
| 2026-04-20 04:44 | 46.02384 | -72.73472 | 16003 ft | 296 kts | 239° |
| 2026-04-20 04:45 | 46.01391 | -72.76055 | 15636 ft | 293 kts | 239° |
| 2026-04-20 04:45 | 46.00408 | -72.78600 | 15254 ft | 290 kts | 239° |
| 2026-04-20 04:45 | 45.99433 | -72.81122 | 14894 ft | 287 kts | 239° |
| 2026-04-20 04:45 | 45.98470 | -72.83609 | 14523 ft | 284 kts | 239° |
| 2026-04-20 04:46 | 45.97513 | -72.86080 | 14174 ft | 281 kts | 239° |
| 2026-04-20 04:46 | 45.96566 | -72.88518 | 13829 ft | 279 kts | 239° |
| 2026-04-20 04:46 | 45.95619 | -72.90956 | 13435 ft | 280 kts | 239° |
| 2026-04-20 04:46 | 45.94674 | -72.93384 | 13053 ft | 285 kts | 239° |
| 2026-04-20 04:47 | 45.93695 | -72.95896 | 12696 ft | 290 kts | 239° |
| 2026-04-20 04:47 | 45.92709 | -72.98430 | 12317 ft | 290 kts | 239° |
| 2026-04-20 04:47 | 45.91730 | -73.00941 | 11951 ft | 286 kts | 239° |
| 2026-04-20 04:47 | 45.90764 | -73.03420 | 11582 ft | 282 kts | 239° |
| 2026-04-20 04:48 | 45.89812 | -73.05858 | 11238 ft | 278 kts | 239° |
| 2026-04-20 04:48 | 45.88873 | -73.08258 | 10894 ft | 274 kts | 239° |
| 2026-04-20 04:48 | 45.87942 | -73.10634 | 10561 ft | 271 kts | 239° |
| 2026-04-20 04:48 | 45.87258 | -73.13067 | 10433 ft | 259 kts | 253° |
| 2026-04-20 04:49 | 45.86998 | -73.15582 | 10305 ft | 252 kts | 264° |
| 2026-04-20 04:49 | 45.87058 | -73.18023 | 10204 ft | 243 kts | 269° |
| 2026-04-20 04:49 | 45.87197 | -73.20387 | 10097 ft | 233 kts | 269° |
| 2026-04-20 04:49 | 45.87338 | -73.22666 | 9993 ft | 228 kts | 269° |
| 2026-04-20 04:50 | 45.87473 | -73.25018 | 9751 ft | 242 kts | 269° |
| 2026-04-20 04:50 | 45.87609 | -73.27455 | 9469 ft | 245 kts | 269° |
| 2026-04-20 04:50 | 45.87743 | -73.29888 | 9172 ft | 243 kts | 269° |
| 2026-04-20 04:50 | 45.87873 | -73.32283 | 8885 ft | 239 kts | 269° |
| 2026-04-20 04:51 | 45.87997 | -73.34632 | 8618 ft | 234 kts | 269° |
| 2026-04-20 04:51 | 45.88117 | -73.36933 | 8356 ft | 229 kts | 269° |
| 2026-04-20 04:51 | 45.88233 | -73.39184 | 8090 ft | 224 kts | 269° |
| 2026-04-20 04:51 | 45.88346 | -73.41418 | 7841 ft | 224 kts | 269° |
| 2026-04-20 04:52 | 45.88458 | -73.43671 | 7603 ft | 229 kts | 269° |
| 2026-04-20 04:52 | 45.88570 | -73.45953 | 7343 ft | 234 kts | 269° |
| 2026-04-20 04:52 | 45.88686 | -73.48283 | 7069 ft | 233 kts | 269° |
| 2026-04-20 04:52 | 45.88800 | -73.50576 | 6790 ft | 228 kts | 269° |
| 2026-04-20 04:53 | 45.88824 | -73.52789 | 6517 ft | 215 kts | 256° |
| 2026-04-20 04:53 | 45.88394 | -73.54804 | 6285 ft | 213 kts | 249° |
| 2026-04-20 04:53 | 45.87901 | -73.56878 | 6042 ft | 226 kts | 249° |
| 2026-04-20 04:53 | 45.87398 | -73.59032 | 5767 ft | 229 kts | 249° |
| 2026-04-20 04:54 | 45.86896 | -73.61179 | 5495 ft | 224 kts | 249° |
| 2026-04-20 04:54 | 45.86407 | -73.63273 | 5214 ft | 219 kts | 250° |
| 2026-04-20 04:54 | 45.85930 | -73.65314 | 4970 ft | 214 kts | 250° |
| 2026-04-20 04:54 | 45.85448 | -73.67366 | 4737 ft | 221 kts | 249° |
| 2026-04-20 04:55 | 45.84951 | -73.69486 | 4472 ft | 227 kts | 250° |
| 2026-04-20 04:55 | 45.84445 | -73.71640 | 4200 ft | 229 kts | 250° |
| 2026-04-20 04:55 | 45.83940 | -73.73793 | 3924 ft | 225 kts | 250° |
| 2026-04-20 04:55 | 45.83447 | -73.75889 | 3671 ft | 220 kts | 250° |
| 2026-04-20 04:56 | 45.82961 | -73.77952 | 3535 ft | 215 kts | 250° |
| 2026-04-20 04:56 | 45.82333 | -73.79782 | 3399 ft | 196 kts | 233° |
| 2026-04-20 04:56 | 45.81512 | -73.81239 | 3197 ft | 181 kts | 233° |
| 2026-04-20 04:56 | 45.80702 | -73.82563 | 3183 ft | 179 kts | 231° |
| 2026-04-20 04:57 | 45.79836 | -73.83860 | 3091 ft | 179 kts | 229° |
| 2026-04-20 04:57 | 45.78978 | -73.85103 | 3026 ft | 177 kts | 229° |
| 2026-04-20 04:57 | 45.78096 | -73.86370 | 2821 ft | 181 kts | 229° |
| 2026-04-20 04:57 | 45.77205 | -73.87646 | 2570 ft | 180 kts | 229° |
| 2026-04-20 04:58 | 45.76326 | -73.88905 | 2295 ft | 177 kts | 229° |
| 2026-04-20 04:58 | 45.75478 | -73.90118 | 2076 ft | 168 kts | 230° |
| 2026-04-20 04:58 | 45.74663 | -73.91286 | 1830 ft | 164 kts | 230° |
| 2026-04-20 04:58 | 45.73884 | -73.92399 | 1600 ft | 150 kts | 230° |
| 2026-04-20 04:59 | 45.73173 | -73.93419 | 1392 ft | 142 kts | 230° |
| 2026-04-20 04:59 | 45.72476 | -73.94420 | 1179 ft | 144 kts | 228° |
| 2026-04-20 04:59 | 45.71767 | -73.95433 | 953 ft | 144 kts | 228° |
| 2026-04-20 04:59 | 45.71056 | -73.96449 | 740 ft | 145 kts | 227° |
| 2026-04-20 05:00 | 45.70341 | -73.97466 | 559 ft | 146 kts | 226° |
| 2026-04-20 05:00 | 45.69631 | -73.98482 | 378 ft | 147 kts | 229° |
| 2026-04-20 05:00 | 45.68925 | -73.99493 | 260 ft | 134 kts | 227° |
| 2026-04-20 05:00 | 45.68363 | -74.00294 | 257 ft | 86 kts | 225° |
| 2026-04-20 05:01 | 45.68004 | -74.00806 | 262 ft | 70 kts | 225° |
| 2026-04-20 05:01 | 45.67679 | -74.01266 | 262 ft | 62 kts | 226° |
| 2026-04-20 05:01 | 45.67397 | -74.01674 | 267 ft | 54 kts | 225° |
| 2026-04-20 05:01 | 45.67167 | -74.01998 | 269 ft | 29 kts | 225° |
| 2026-04-20 05:02 | 45.67082 | -74.02163 | 268 ft | 16 kts | 269° |
| 2026-04-20 05:02 | 45.67122 | -74.02253 | 269 ft | 11 kts | 315° |
| 2026-04-20 05:02 | 45.67175 | -74.02328 | 269 ft | 11 kts | 316° |
| 2026-04-20 05:02 | 45.67231 | -74.02399 | 270 ft | 11 kts | 325° |
| 2026-04-20 05:03 | 45.67299 | -74.02445 | 269 ft | 11 kts | 336° |
| 2026-04-20 05:03 | 45.67407 | -74.02511 | 270 ft | 21 kts | 337° |
| 2026-04-20 05:03 | 45.67520 | -74.02617 | 270 ft | 20 kts | 293° |
| 2026-04-20 05:03 | 45.67490 | -74.02808 | 271 ft | 20 kts | 251° |
| 2026-04-20 05:04 | 45.67434 | -74.03032 | 275 ft | 29 kts | 249° |
| 2026-04-20 05:04 | 45.67366 | -74.03292 | 275 ft | 28 kts | 250° |
| 2026-04-20 05:04 | 45.67300 | -74.03548 | 277 ft | 27 kts | 250° |
| 2026-04-20 05:04 | 45.67235 | -74.03805 | 279 ft | 27 kts | 250° |
| 2026-04-20 05:05 | 45.67171 | -74.04063 | 281 ft | 26 kts | 251° |
| 2026-04-20 05:05 | 45.67164 | -74.04242 | 282 ft | 18 kts | 276° |
| 2026-04-20 05:05 | 45.67230 | -74.04377 | 281 ft | 18 kts | 348° |
| 2026-04-20 05:05 | 45.67357 | -74.04367 | 280 ft | 18 kts | 8° |
| 2026-04-20 05:06 | 45.67483 | -74.04340 | 280 ft | 18 kts | 7° |
| 2026-04-20 05:06 | 45.67606 | -74.04334 | 279 ft | 11 kts | 349° |
| 2026-04-20 05:06 | 45.67642 | -74.04391 | 279 ft | 0 kts | 269° |